﻿<?xml version="1.0" encoding="UTF-8" standalone="no" ?>
<gpx xmlns="http://www.topografix.com/GPX/1/1" creator="CompeGPS" version="1.1" xmlns:xsi="http://www.w3.org/2001/XMLSchema-instance" xsi:schemaLocation="http://www.topografix.com/GPX/1/1 http://www.topografix.com/GPX/1/1/gpx.xsd http://www.garmin.com/xmlschemas/GpxExtensions/v3 http://www.garmin.com/xmlschemas/GpxExtensionsv3.xsd http://www.garmin.com/xmlschemas/TrackPointExtension/v1 http://www.garmin.com/xmlschemas/TrackPointExtensionv1.xsd" xmlns:gpxtpx="http://www.garmin.com/xmlschemas/TrackPointExtension/v1">
  <metadata>
    <link href="http://www.compegps.com">
      <text>CompeGPS TEAM, SL</text>
    </link>
    <time>2013-05-13T12:26:18Z</time>
    <bounds maxlat="42.927421" maxlon="0.227449" minlat="42.899217" minlon="0.209258"/>
  </metadata>
<wpt lat="42.916873" lon="0.209471">
  <ele>1420</ele>
  <name>Lacet du Garet</name>
</wpt>
<wpt lat="42.914523" lon="0.217037">
  <ele>1569</ele>
  <name>Collet</name>
</wpt>
<wpt lat="42.919818" lon="0.223242">
  <ele>1815</ele>
  <name>Cot Debat</name>
</wpt>
<wpt lat="42.927421" lon="0.224285">
  <ele>1910</ele>
  <name>Pla de las Penes</name>
</wpt>
<wpt lat="42.911496" lon="0.225947">
  <ele>1860</ele>
  <name>Cot Dessus</name>
</wpt>
<wpt lat="42.899227" lon="0.225332">
  <ele>2354</ele>
  <name>Soum de Marianette</name>
</wpt>
  <trk>
    <name>Soum de Marianette</name>
    <trkseg>
      <trkpt lat="42.916873" lon="0.209471">
        <ele>1415.5</ele>
        <time>2013-05-10T08:26:25Z</time>
        <name>Lacet du Garet</name>
      </trkpt>
      <trkpt lat="42.916813" lon="0.209477">
        <ele>1425.8</ele>
        <time>2013-05-10T08:28:30Z</time>
      </trkpt>
      <trkpt lat="42.916789" lon="0.209472">
        <ele>1425.8</ele>
        <time>2013-05-10T08:29:48Z</time>
      </trkpt>
      <trkpt lat="42.916747" lon="0.209470">
        <ele>1426.2</ele>
        <time>2013-05-10T08:30:12Z</time>
      </trkpt>
      <trkpt lat="42.916685" lon="0.209360">
        <ele>1426.7</ele>
        <time>2013-05-10T08:30:58Z</time>
      </trkpt>
      <trkpt lat="42.916597" lon="0.209258">
        <ele>1425.3</ele>
        <time>2013-05-10T08:31:09Z</time>
      </trkpt>
      <trkpt lat="42.916549" lon="0.209283">
        <ele>1425.1</ele>
        <time>2013-05-10T08:31:16Z</time>
      </trkpt>
      <trkpt lat="42.916521" lon="0.209341">
        <ele>1418.1</ele>
        <time>2013-05-10T08:31:33Z</time>
      </trkpt>
      <trkpt lat="42.916495" lon="0.209531">
        <ele>1416.2</ele>
        <time>2013-05-10T08:31:43Z</time>
      </trkpt>
      <trkpt lat="42.916481" lon="0.209619">
        <ele>1419.9</ele>
        <time>2013-05-10T08:31:59Z</time>
      </trkpt>
      <trkpt lat="42.916430" lon="0.209694">
        <ele>1415.2</ele>
        <time>2013-05-10T08:32:14Z</time>
      </trkpt>
      <trkpt lat="42.916411" lon="0.209797">
        <ele>1419.5</ele>
        <time>2013-05-10T08:32:29Z</time>
      </trkpt>
      <trkpt lat="42.916283" lon="0.209896">
        <ele>1423.8</ele>
        <time>2013-05-10T08:32:45Z</time>
      </trkpt>
      <trkpt lat="42.916220" lon="0.210059">
        <ele>1426.7</ele>
        <time>2013-05-10T08:33:02Z</time>
      </trkpt>
      <trkpt lat="42.916155" lon="0.210096">
        <ele>1425.8</ele>
        <time>2013-05-10T08:33:25Z</time>
      </trkpt>
      <trkpt lat="42.916111" lon="0.210247">
        <ele>1425.3</ele>
        <time>2013-05-10T08:33:35Z</time>
      </trkpt>
      <trkpt lat="42.916047" lon="0.210398">
        <ele>1426.7</ele>
        <time>2013-05-10T08:33:45Z</time>
      </trkpt>
      <trkpt lat="42.916028" lon="0.210541">
        <ele>1429.6</ele>
        <time>2013-05-10T08:33:58Z</time>
      </trkpt>
      <trkpt lat="42.915991" lon="0.210661">
        <ele>1431.5</ele>
        <time>2013-05-10T08:34:11Z</time>
      </trkpt>
      <trkpt lat="42.916015" lon="0.210804">
        <ele>1433.0</ele>
        <time>2013-05-10T08:34:22Z</time>
      </trkpt>
      <trkpt lat="42.915986" lon="0.211001">
        <ele>1435.4</ele>
        <time>2013-05-10T08:34:37Z</time>
      </trkpt>
      <trkpt lat="42.915890" lon="0.211213">
        <ele>1440.2</ele>
        <time>2013-05-10T08:35:00Z</time>
      </trkpt>
      <trkpt lat="42.915868" lon="0.211427">
        <ele>1445.5</ele>
        <time>2013-05-10T08:35:24Z</time>
      </trkpt>
      <trkpt lat="42.915772" lon="0.211488">
        <ele>1450.3</ele>
        <time>2013-05-10T08:35:44Z</time>
      </trkpt>
      <trkpt lat="42.915798" lon="0.211624">
        <ele>1454.6</ele>
        <time>2013-05-10T08:36:05Z</time>
      </trkpt>
      <trkpt lat="42.915735" lon="0.211757">
        <ele>1459.9</ele>
        <time>2013-05-10T08:36:31Z</time>
      </trkpt>
      <trkpt lat="42.915733" lon="0.211874">
        <ele>1465.7</ele>
        <time>2013-05-10T08:36:54Z</time>
      </trkpt>
      <trkpt lat="42.915659" lon="0.211958">
        <ele>1469.5</ele>
        <time>2013-05-10T08:37:15Z</time>
      </trkpt>
      <trkpt lat="42.915692" lon="0.212063">
        <ele>1474.8</ele>
        <time>2013-05-10T08:37:40Z</time>
      </trkpt>
      <trkpt lat="42.915724" lon="0.212180">
        <ele>1478.7</ele>
        <time>2013-05-10T08:38:00Z</time>
      </trkpt>
      <trkpt lat="42.915659" lon="0.212300">
        <ele>1481.5</ele>
        <time>2013-05-10T08:38:17Z</time>
      </trkpt>
      <trkpt lat="42.915571" lon="0.212364">
        <ele>1482.0</ele>
        <time>2013-05-10T08:38:31Z</time>
      </trkpt>
      <trkpt lat="42.915561" lon="0.212486">
        <ele>1486.8</ele>
        <time>2013-05-10T08:38:49Z</time>
      </trkpt>
      <trkpt lat="42.915634" lon="0.212582">
        <ele>1488.7</ele>
        <time>2013-05-10T08:39:06Z</time>
      </trkpt>
      <trkpt lat="42.915649" lon="0.212721">
        <ele>1491.1</ele>
        <time>2013-05-10T08:39:22Z</time>
      </trkpt>
      <trkpt lat="42.915687" lon="0.212845">
        <ele>1495.5</ele>
        <time>2013-05-10T08:39:41Z</time>
      </trkpt>
      <trkpt lat="42.915765" lon="0.212998">
        <ele>1498.8</ele>
        <time>2013-05-10T08:40:00Z</time>
      </trkpt>
      <trkpt lat="42.915837" lon="0.213090">
        <ele>1501.7</ele>
        <time>2013-05-10T08:40:18Z</time>
      </trkpt>
      <trkpt lat="42.915902" lon="0.213164">
        <ele>1506.0</ele>
        <time>2013-05-10T08:40:41Z</time>
      </trkpt>
      <trkpt lat="42.915902" lon="0.213281">
        <ele>1510.8</ele>
        <time>2013-05-10T08:41:05Z</time>
      </trkpt>
      <trkpt lat="42.915907" lon="0.213422">
        <ele>1515.7</ele>
        <time>2013-05-10T08:41:33Z</time>
      </trkpt>
      <trkpt lat="42.915905" lon="0.213490">
        <ele>1504.6</ele>
        <time>2013-05-10T08:41:53Z</time>
      </trkpt>
      <trkpt lat="42.915922" lon="0.213561">
        <ele>1522.4</ele>
        <time>2013-05-10T08:42:13Z</time>
      </trkpt>
      <trkpt lat="42.915945" lon="0.213657">
        <ele>1527.2</ele>
        <time>2013-05-10T08:42:38Z</time>
      </trkpt>
      <trkpt lat="42.915879" lon="0.213788">
        <ele>1532.5</ele>
        <time>2013-05-10T08:43:04Z</time>
      </trkpt>
      <trkpt lat="42.915877" lon="0.213975">
        <ele>1537.3</ele>
        <time>2013-05-10T08:43:29Z</time>
      </trkpt>
      <trkpt lat="42.915817" lon="0.214143">
        <ele>1542.1</ele>
        <time>2013-05-10T08:43:50Z</time>
      </trkpt>
      <trkpt lat="42.915784" lon="0.214268">
        <ele>1545.0</ele>
        <time>2013-05-10T08:44:09Z</time>
      </trkpt>
      <trkpt lat="42.915751" lon="0.214402">
        <ele>1547.9</ele>
        <time>2013-05-10T08:44:23Z</time>
      </trkpt>
      <trkpt lat="42.915718" lon="0.214542">
        <ele>1549.3</ele>
        <time>2013-05-10T08:44:37Z</time>
      </trkpt>
      <trkpt lat="42.915685" lon="0.214661">
        <ele>1550.7</ele>
        <time>2013-05-10T08:44:50Z</time>
      </trkpt>
      <trkpt lat="42.915642" lon="0.214811">
        <ele>1550.7</ele>
        <time>2013-05-10T08:45:02Z</time>
      </trkpt>
      <trkpt lat="42.915598" lon="0.214935">
        <ele>1551.7</ele>
        <time>2013-05-10T08:45:12Z</time>
      </trkpt>
      <trkpt lat="42.915549" lon="0.215066">
        <ele>1552.7</ele>
        <time>2013-05-10T08:45:24Z</time>
      </trkpt>
      <trkpt lat="42.915499" lon="0.215199">
        <ele>1553.2</ele>
        <time>2013-05-10T08:45:35Z</time>
      </trkpt>
      <trkpt lat="42.915474" lon="0.215335">
        <ele>1532.6</ele>
        <time>2013-05-10T08:45:47Z</time>
      </trkpt>
      <trkpt lat="42.915463" lon="0.215390">
        <ele>1556.0</ele>
        <time>2013-05-10T08:50:19Z</time>
      </trkpt>
      <trkpt lat="42.915443" lon="0.215518">
        <ele>1555.6</ele>
        <time>2013-05-10T08:51:57Z</time>
      </trkpt>
      <trkpt lat="42.915416" lon="0.215641">
        <ele>1556.0</ele>
        <time>2013-05-10T08:52:07Z</time>
      </trkpt>
      <trkpt lat="42.915382" lon="0.215766">
        <ele>1556.5</ele>
        <time>2013-05-10T08:52:18Z</time>
      </trkpt>
      <trkpt lat="42.915333" lon="0.215892">
        <ele>1557.5</ele>
        <time>2013-05-10T08:52:27Z</time>
      </trkpt>
      <trkpt lat="42.915281" lon="0.216009">
        <ele>1557.5</ele>
        <time>2013-05-10T08:52:38Z</time>
      </trkpt>
      <trkpt lat="42.915177" lon="0.216128">
        <ele>1557.0</ele>
        <time>2013-05-10T08:52:48Z</time>
      </trkpt>
      <trkpt lat="42.915096" lon="0.216217">
        <ele>1557.0</ele>
        <time>2013-05-10T08:52:58Z</time>
      </trkpt>
      <trkpt lat="42.915016" lon="0.216332">
        <ele>1556.5</ele>
        <time>2013-05-10T08:53:09Z</time>
      </trkpt>
      <trkpt lat="42.914940" lon="0.216429">
        <ele>1557.5</ele>
        <time>2013-05-10T08:53:20Z</time>
      </trkpt>
      <trkpt lat="42.914848" lon="0.216526">
        <ele>1557.9</ele>
        <time>2013-05-10T08:53:30Z</time>
      </trkpt>
      <trkpt lat="42.914786" lon="0.216625">
        <ele>1558.4</ele>
        <time>2013-05-10T08:53:40Z</time>
      </trkpt>
      <trkpt lat="42.914709" lon="0.216711">
        <ele>1558.9</ele>
        <time>2013-05-10T08:53:50Z</time>
      </trkpt>
      <trkpt lat="42.914639" lon="0.216810">
        <ele>1558.4</ele>
        <time>2013-05-10T08:53:59Z</time>
      </trkpt>
      <trkpt lat="42.914576" lon="0.216900">
        <ele>1557.5</ele>
        <time>2013-05-10T08:54:08Z</time>
      </trkpt>
      <trkpt lat="42.914523" lon="0.217037">
        <ele>1556.5</ele>
        <time>2013-05-10T08:54:18Z</time>
        <name>Collet</name>
      </trkpt>
      <trkpt lat="42.914557" lon="0.217155">
        <ele>1557.0</ele>
        <time>2013-05-10T08:54:29Z</time>
      </trkpt>
      <trkpt lat="42.914579" lon="0.217277">
        <ele>1557.9</ele>
        <time>2013-05-10T08:54:38Z</time>
      </trkpt>
      <trkpt lat="42.914629" lon="0.217386">
        <ele>1557.9</ele>
        <time>2013-05-10T08:54:47Z</time>
      </trkpt>
      <trkpt lat="42.914670" lon="0.217477">
        <ele>1557.9</ele>
        <time>2013-05-10T08:54:57Z</time>
      </trkpt>
      <trkpt lat="42.914729" lon="0.217551">
        <ele>1559.4</ele>
        <time>2013-05-10T08:55:05Z</time>
      </trkpt>
      <trkpt lat="42.914817" lon="0.217639">
        <ele>1558.9</ele>
        <time>2013-05-10T08:55:15Z</time>
      </trkpt>
      <trkpt lat="42.914895" lon="0.217721">
        <ele>1558.9</ele>
        <time>2013-05-10T08:55:23Z</time>
      </trkpt>
      <trkpt lat="42.914997" lon="0.217824">
        <ele>1558.4</ele>
        <time>2013-05-10T08:55:33Z</time>
      </trkpt>
      <trkpt lat="42.915110" lon="0.217844">
        <ele>1558.4</ele>
        <time>2013-05-10T08:55:43Z</time>
      </trkpt>
      <trkpt lat="42.915200" lon="0.217886">
        <ele>1558.4</ele>
        <time>2013-05-10T08:55:53Z</time>
      </trkpt>
      <trkpt lat="42.915295" lon="0.217950">
        <ele>1559.4</ele>
        <time>2013-05-10T08:56:05Z</time>
      </trkpt>
      <trkpt lat="42.915390" lon="0.217973">
        <ele>1560.4</ele>
        <time>2013-05-10T08:56:14Z</time>
      </trkpt>
      <trkpt lat="42.915486" lon="0.217989">
        <ele>1561.3</ele>
        <time>2013-05-10T08:56:23Z</time>
      </trkpt>
      <trkpt lat="42.915601" lon="0.218017">
        <ele>1562.3</ele>
        <time>2013-05-10T08:56:33Z</time>
      </trkpt>
      <trkpt lat="42.915724" lon="0.218030">
        <ele>1565.2</ele>
        <time>2013-05-10T08:56:47Z</time>
      </trkpt>
      <trkpt lat="42.915856" lon="0.218025">
        <ele>1564.7</ele>
        <time>2013-05-10T08:56:59Z</time>
      </trkpt>
      <trkpt lat="42.916003" lon="0.218028">
        <ele>1564.7</ele>
        <time>2013-05-10T08:57:11Z</time>
      </trkpt>
      <trkpt lat="42.916092" lon="0.218015">
        <ele>1566.6</ele>
        <time>2013-05-10T08:57:21Z</time>
      </trkpt>
      <trkpt lat="42.916210" lon="0.217943">
        <ele>1569.5</ele>
        <time>2013-05-10T08:57:39Z</time>
      </trkpt>
      <trkpt lat="42.916256" lon="0.217827">
        <ele>1569.5</ele>
        <time>2013-05-10T08:57:50Z</time>
      </trkpt>
      <trkpt lat="42.916346" lon="0.217726">
        <ele>1571.4</ele>
        <time>2013-05-10T08:58:02Z</time>
      </trkpt>
      <trkpt lat="42.916419" lon="0.217644">
        <ele>1572.8</ele>
        <time>2013-05-10T08:58:11Z</time>
      </trkpt>
      <trkpt lat="42.916514" lon="0.217617">
        <ele>1577.2</ele>
        <time>2013-05-10T08:58:28Z</time>
      </trkpt>
      <trkpt lat="42.916570" lon="0.217651">
        <ele>1581.5</ele>
        <time>2013-05-10T08:58:47Z</time>
      </trkpt>
      <trkpt lat="42.916642" lon="0.217634">
        <ele>1598.2</ele>
        <time>2013-05-10T08:58:58Z</time>
      </trkpt>
      <trkpt lat="42.916707" lon="0.217641">
        <ele>1586.3</ele>
        <time>2013-05-10T08:59:13Z</time>
      </trkpt>
      <trkpt lat="42.916781" lon="0.217694">
        <ele>1592.1</ele>
        <time>2013-05-10T08:59:31Z</time>
      </trkpt>
      <trkpt lat="42.916824" lon="0.217785">
        <ele>1596.4</ele>
        <time>2013-05-10T08:59:49Z</time>
      </trkpt>
      <trkpt lat="42.916891" lon="0.217879">
        <ele>1609.1</ele>
        <time>2013-05-10T09:00:05Z</time>
      </trkpt>
      <trkpt lat="42.916955" lon="0.217913">
        <ele>1610.8</ele>
        <time>2013-05-10T09:00:22Z</time>
      </trkpt>
      <trkpt lat="42.917023" lon="0.217976">
        <ele>1607.9</ele>
        <time>2013-05-10T09:00:46Z</time>
      </trkpt>
      <trkpt lat="42.917065" lon="0.218003">
        <ele>1615.2</ele>
        <time>2013-05-10T09:01:01Z</time>
      </trkpt>
      <trkpt lat="42.917127" lon="0.218077">
        <ele>1618.6</ele>
        <time>2013-05-10T09:01:14Z</time>
      </trkpt>
      <trkpt lat="42.917163" lon="0.218121">
        <ele>1613.2</ele>
        <time>2013-05-10T09:01:28Z</time>
      </trkpt>
      <trkpt lat="42.917230" lon="0.218234">
        <ele>1615.2</ele>
        <time>2013-05-10T09:01:44Z</time>
      </trkpt>
      <trkpt lat="42.917309" lon="0.218348">
        <ele>1618.5</ele>
        <time>2013-05-10T09:02:00Z</time>
      </trkpt>
      <trkpt lat="42.917379" lon="0.218450">
        <ele>1622.4</ele>
        <time>2013-05-10T09:02:18Z</time>
      </trkpt>
      <trkpt lat="42.917450" lon="0.218534">
        <ele>1626.2</ele>
        <time>2013-05-10T09:02:35Z</time>
      </trkpt>
      <trkpt lat="42.917528" lon="0.218604">
        <ele>1629.6</ele>
        <time>2013-05-10T09:02:52Z</time>
      </trkpt>
      <trkpt lat="42.917627" lon="0.218663">
        <ele>1633.9</ele>
        <time>2013-05-10T09:03:12Z</time>
      </trkpt>
      <trkpt lat="42.917696" lon="0.218718">
        <ele>1637.7</ele>
        <time>2013-05-10T09:03:30Z</time>
      </trkpt>
      <trkpt lat="42.917781" lon="0.218725">
        <ele>1639.7</ele>
        <time>2013-05-10T09:03:41Z</time>
      </trkpt>
      <trkpt lat="42.917865" lon="0.218767">
        <ele>1642.6</ele>
        <time>2013-05-10T09:03:56Z</time>
      </trkpt>
      <trkpt lat="42.917950" lon="0.218789">
        <ele>1646.9</ele>
        <time>2013-05-10T09:04:12Z</time>
      </trkpt>
      <trkpt lat="42.918014" lon="0.218872">
        <ele>1650.7</ele>
        <time>2013-05-10T09:04:30Z</time>
      </trkpt>
      <trkpt lat="42.918063" lon="0.218973">
        <ele>1654.6</ele>
        <time>2013-05-10T09:04:47Z</time>
      </trkpt>
      <trkpt lat="42.918144" lon="0.219022">
        <ele>1657.9</ele>
        <time>2013-05-10T09:05:02Z</time>
      </trkpt>
      <trkpt lat="42.918222" lon="0.219082">
        <ele>1659.8</ele>
        <time>2013-05-10T09:08:27Z</time>
      </trkpt>
      <trkpt lat="42.918311" lon="0.219133">
        <ele>1660.8</ele>
        <time>2013-05-10T09:08:39Z</time>
      </trkpt>
      <trkpt lat="42.918407" lon="0.219159">
        <ele>1663.7</ele>
        <time>2013-05-10T09:08:49Z</time>
      </trkpt>
      <trkpt lat="42.918496" lon="0.219209">
        <ele>1663.2</ele>
        <time>2013-05-10T09:09:01Z</time>
      </trkpt>
      <trkpt lat="42.918593" lon="0.219273">
        <ele>1665.6</ele>
        <time>2013-05-10T09:09:14Z</time>
      </trkpt>
      <trkpt lat="42.918697" lon="0.219330">
        <ele>1667.5</ele>
        <time>2013-05-10T09:09:29Z</time>
      </trkpt>
      <trkpt lat="42.918795" lon="0.219442">
        <ele>1687.1</ele>
        <time>2013-05-10T09:09:40Z</time>
      </trkpt>
      <trkpt lat="42.918856" lon="0.219581">
        <ele>1690.3</ele>
        <time>2013-05-10T09:09:51Z</time>
      </trkpt>
      <trkpt lat="42.918907" lon="0.219701">
        <ele>1692.7</ele>
        <time>2013-05-10T09:10:06Z</time>
      </trkpt>
      <trkpt lat="42.918954" lon="0.219835">
        <ele>1695.2</ele>
        <time>2013-05-10T09:10:19Z</time>
      </trkpt>
      <trkpt lat="42.919012" lon="0.219953">
        <ele>1697.5</ele>
        <time>2013-05-10T09:10:32Z</time>
      </trkpt>
      <trkpt lat="42.919059" lon="0.220106">
        <ele>1700.5</ele>
        <time>2013-05-10T09:10:47Z</time>
      </trkpt>
      <trkpt lat="42.919070" lon="0.220328">
        <ele>1704.0</ele>
        <time>2013-05-10T09:11:00Z</time>
      </trkpt>
      <trkpt lat="42.919112" lon="0.220561">
        <ele>1707.9</ele>
        <time>2013-05-10T09:12:37Z</time>
      </trkpt>
      <trkpt lat="42.919156" lon="0.220739">
        <ele>1710.6</ele>
        <time>2013-05-10T09:12:52Z</time>
      </trkpt>
      <trkpt lat="42.919287" lon="0.221031">
        <ele>1721.8</ele>
        <time>2013-05-10T09:13:08Z</time>
      </trkpt>
      <trkpt lat="42.919398" lon="0.221163">
        <ele>1728.7</ele>
        <time>2013-05-10T09:14:30Z</time>
      </trkpt>
      <trkpt lat="42.919426" lon="0.221289">
        <ele>1733.1</ele>
        <time>2013-05-10T09:14:49Z</time>
      </trkpt>
      <trkpt lat="42.919462" lon="0.221464">
        <ele>1738.5</ele>
        <time>2013-05-10T09:15:12Z</time>
      </trkpt>
      <trkpt lat="42.919514" lon="0.221625">
        <ele>1733.4</ele>
        <time>2013-05-10T09:15:31Z</time>
      </trkpt>
      <trkpt lat="42.919503" lon="0.221742">
        <ele>1737.2</ele>
        <time>2013-05-10T09:15:50Z</time>
      </trkpt>
      <trkpt lat="42.919693" lon="0.222138">
        <ele>1765.1</ele>
        <time>2013-05-10T09:16:06Z</time>
      </trkpt>
      <trkpt lat="42.919670" lon="0.222408">
        <ele>1774.3</ele>
        <time>2013-05-10T09:16:29Z</time>
      </trkpt>
      <trkpt lat="42.919693" lon="0.222813">
        <ele>1789.1</ele>
        <time>2013-05-10T09:19:41Z</time>
      </trkpt>
      <trkpt lat="42.919818" lon="0.223242">
        <ele>1807.0</ele>
        <time>2013-05-10T09:19:55Z</time>
        <name>Cot Debat</name>
      </trkpt>
      <trkpt lat="42.920153" lon="0.223379">
        <ele>1817.2</ele>
        <time>2013-05-10T09:20:14Z</time>
      </trkpt>
      <trkpt lat="42.920513" lon="0.223419">
        <ele>1824.3</ele>
        <time>2013-05-10T09:30:28Z</time>
      </trkpt>
      <trkpt lat="42.920778" lon="0.223490">
        <ele>1829.7</ele>
        <time>2013-05-10T09:31:11Z</time>
      </trkpt>
      <trkpt lat="42.921049" lon="0.223459">
        <ele>1834.6</ele>
        <time>2013-05-10T09:35:55Z</time>
      </trkpt>
      <trkpt lat="42.921285" lon="0.223469">
        <ele>1838.9</ele>
        <time>2013-05-10T09:36:04Z</time>
      </trkpt>
      <trkpt lat="42.921461" lon="0.223560">
        <ele>1841.7</ele>
        <time>2013-05-10T09:36:13Z</time>
      </trkpt>
      <trkpt lat="42.921689" lon="0.223540">
        <ele>1845.8</ele>
        <time>2013-05-10T09:36:23Z</time>
      </trkpt>
      <trkpt lat="42.921865" lon="0.223479">
        <ele>1850.9</ele>
        <time>2013-05-10T09:37:44Z</time>
      </trkpt>
      <trkpt lat="42.922056" lon="0.223460">
        <ele>1856.3</ele>
        <time>2013-05-10T09:38:50Z</time>
      </trkpt>
      <trkpt lat="42.922156" lon="0.223450">
        <ele>1858.9</ele>
        <time>2013-05-10T09:39:01Z</time>
      </trkpt>
      <trkpt lat="42.922241" lon="0.223440">
        <ele>1861.3</ele>
        <time>2013-05-10T09:39:33Z</time>
      </trkpt>
      <trkpt lat="42.922315" lon="0.223435">
        <ele>1863.5</ele>
        <time>2013-05-10T09:39:43Z</time>
      </trkpt>
      <trkpt lat="42.922423" lon="0.223445">
        <ele>1866.1</ele>
        <time>2013-05-10T09:39:53Z</time>
      </trkpt>
      <trkpt lat="42.922527" lon="0.223430">
        <ele>1868.7</ele>
        <time>2013-05-10T09:40:03Z</time>
      </trkpt>
      <trkpt lat="42.922627" lon="0.223374">
        <ele>1870.9</ele>
        <time>2013-05-10T09:40:13Z</time>
      </trkpt>
      <trkpt lat="42.922780" lon="0.223391">
        <ele>1872.7</ele>
        <time>2013-05-10T09:40:18Z</time>
      </trkpt>
      <trkpt lat="42.922877" lon="0.223388">
        <ele>1873.9</ele>
        <time>2013-05-10T09:40:23Z</time>
      </trkpt>
      <trkpt lat="42.922951" lon="0.223379">
        <ele>1875.2</ele>
        <time>2013-05-10T09:40:30Z</time>
      </trkpt>
      <trkpt lat="42.923040" lon="0.223378">
        <ele>1876.3</ele>
        <time>2013-05-10T09:40:41Z</time>
      </trkpt>
      <trkpt lat="42.923146" lon="0.223378">
        <ele>1868.9</ele>
        <time>2013-05-10T09:40:51Z</time>
      </trkpt>
      <trkpt lat="42.923255" lon="0.223331">
        <ele>1880.0</ele>
        <time>2013-05-10T09:41:04Z</time>
      </trkpt>
      <trkpt lat="42.923321" lon="0.223326">
        <ele>1880.8</ele>
        <time>2013-05-10T09:41:14Z</time>
      </trkpt>
      <trkpt lat="42.923419" lon="0.223279">
        <ele>1882.2</ele>
        <time>2013-05-10T09:41:24Z</time>
      </trkpt>
      <trkpt lat="42.923501" lon="0.223231">
        <ele>1883.4</ele>
        <time>2013-05-10T09:41:30Z</time>
      </trkpt>
      <trkpt lat="42.923580" lon="0.223208">
        <ele>1884.7</ele>
        <time>2013-05-10T09:41:35Z</time>
      </trkpt>
      <trkpt lat="42.923713" lon="0.223118">
        <ele>1886.7</ele>
        <time>2013-05-10T09:41:41Z</time>
      </trkpt>
      <trkpt lat="42.923896" lon="0.223036">
        <ele>1889.8</ele>
        <time>2013-05-10T09:41:49Z</time>
      </trkpt>
      <trkpt lat="42.924150" lon="0.222888">
        <ele>1894.1</ele>
        <time>2013-05-10T09:41:56Z</time>
      </trkpt>
      <trkpt lat="42.924567" lon="0.222683">
        <ele>1895.4</ele>
        <time>2013-05-10T09:42:04Z</time>
      </trkpt>
      <trkpt lat="42.925103" lon="0.222753">
        <ele>1897.2</ele>
        <time>2013-05-10T09:42:12Z</time>
      </trkpt>
      <trkpt lat="42.926146" lon="0.223099">
        <ele>1901.0</ele>
        <time>2013-05-10T09:42:22Z</time>
      </trkpt>
      <trkpt lat="42.926876" lon="0.223609">
        <ele>1887.2</ele>
        <time>2013-05-10T09:42:32Z</time>
      </trkpt>
      <trkpt lat="42.927421" lon="0.224285">
        <ele>1851.6</ele>
        <time>2013-05-10T09:43:56Z</time>
        <name>Pla de las Penes</name>
      </trkpt>
      <trkpt lat="42.926768" lon="0.223607">
        <ele>1895.6</ele>
        <time>2013-05-10T09:44:08Z</time>
      </trkpt>
      <trkpt lat="42.926224" lon="0.223222">
        <ele>1901.9</ele>
        <time>2013-05-10T09:44:17Z</time>
      </trkpt>
      <trkpt lat="42.925780" lon="0.222960">
        <ele>1900.6</ele>
        <time>2013-05-10T09:44:27Z</time>
      </trkpt>
      <trkpt lat="42.925327" lon="0.222877">
        <ele>1898.5</ele>
        <time>2013-05-10T09:44:37Z</time>
      </trkpt>
      <trkpt lat="42.924853" lon="0.222726">
        <ele>1896.4</ele>
        <time>2013-05-10T09:44:57Z</time>
      </trkpt>
      <trkpt lat="42.924479" lon="0.222729">
        <ele>1895.2</ele>
        <time>2013-05-10T09:45:07Z</time>
      </trkpt>
      <trkpt lat="42.924201" lon="0.222856">
        <ele>1894.5</ele>
        <time>2013-05-10T09:45:16Z</time>
      </trkpt>
      <trkpt lat="42.923933" lon="0.223004">
        <ele>1890.3</ele>
        <time>2013-05-10T09:45:26Z</time>
      </trkpt>
      <trkpt lat="42.923649" lon="0.223173">
        <ele>1885.7</ele>
        <time>2013-05-10T09:45:35Z</time>
      </trkpt>
      <trkpt lat="42.923414" lon="0.223327">
        <ele>1874.2</ele>
        <time>2013-05-10T09:45:44Z</time>
      </trkpt>
      <trkpt lat="42.923315" lon="0.223363">
        <ele>1871.3</ele>
        <time>2013-05-10T09:45:54Z</time>
      </trkpt>
      <trkpt lat="42.923214" lon="0.223372">
        <ele>1868.9</ele>
        <time>2013-05-10T09:46:02Z</time>
      </trkpt>
      <trkpt lat="42.923118" lon="0.223411">
        <ele>1867.5</ele>
        <time>2013-05-10T09:46:10Z</time>
      </trkpt>
      <trkpt lat="42.923024" lon="0.223404">
        <ele>1866.1</ele>
        <time>2013-05-10T09:46:18Z</time>
      </trkpt>
      <trkpt lat="42.922931" lon="0.223413">
        <ele>1864.1</ele>
        <time>2013-05-10T09:46:26Z</time>
      </trkpt>
      <trkpt lat="42.922831" lon="0.223437">
        <ele>1861.2</ele>
        <time>2013-05-10T09:46:35Z</time>
      </trkpt>
      <trkpt lat="42.922736" lon="0.223461">
        <ele>1858.8</ele>
        <time>2013-05-10T09:46:43Z</time>
      </trkpt>
      <trkpt lat="42.922642" lon="0.223498">
        <ele>1856.4</ele>
        <time>2013-05-10T09:46:51Z</time>
      </trkpt>
      <trkpt lat="42.922546" lon="0.223546">
        <ele>1854.5</ele>
        <time>2013-05-10T09:46:59Z</time>
      </trkpt>
      <trkpt lat="42.922447" lon="0.223579">
        <ele>1853.6</ele>
        <time>2013-05-10T09:47:07Z</time>
      </trkpt>
      <trkpt lat="42.922358" lon="0.223601">
        <ele>1852.1</ele>
        <time>2013-05-10T09:47:14Z</time>
      </trkpt>
      <trkpt lat="42.922274" lon="0.223641">
        <ele>1850.2</ele>
        <time>2013-05-10T09:47:21Z</time>
      </trkpt>
      <trkpt lat="42.922188" lon="0.223697">
        <ele>1848.3</ele>
        <time>2013-05-10T09:47:29Z</time>
      </trkpt>
      <trkpt lat="42.922112" lon="0.223757">
        <ele>1847.3</ele>
        <time>2013-05-10T09:47:37Z</time>
      </trkpt>
      <trkpt lat="42.922044" lon="0.223853">
        <ele>1845.9</ele>
        <time>2013-05-10T09:47:49Z</time>
      </trkpt>
      <trkpt lat="42.921978" lon="0.223945">
        <ele>1844.4</ele>
        <time>2013-05-10T09:47:57Z</time>
      </trkpt>
      <trkpt lat="42.921896" lon="0.224004">
        <ele>1843.9</ele>
        <time>2013-05-10T09:48:05Z</time>
      </trkpt>
      <trkpt lat="42.921812" lon="0.224057">
        <ele>1843.0</ele>
        <time>2013-05-10T09:48:13Z</time>
      </trkpt>
      <trkpt lat="42.921748" lon="0.224102">
        <ele>1842.0</ele>
        <time>2013-05-10T09:48:43Z</time>
      </trkpt>
      <trkpt lat="42.921668" lon="0.224151">
        <ele>1841.1</ele>
        <time>2013-05-10T09:48:56Z</time>
      </trkpt>
      <trkpt lat="42.921576" lon="0.224228">
        <ele>1839.1</ele>
        <time>2013-05-10T09:49:05Z</time>
      </trkpt>
      <trkpt lat="42.921478" lon="0.224270">
        <ele>1836.7</ele>
        <time>2013-05-10T09:49:14Z</time>
      </trkpt>
      <trkpt lat="42.921381" lon="0.224274">
        <ele>1833.8</ele>
        <time>2013-05-10T09:49:22Z</time>
      </trkpt>
      <trkpt lat="42.921293" lon="0.224287">
        <ele>1830.5</ele>
        <time>2013-05-10T09:49:30Z</time>
      </trkpt>
      <trkpt lat="42.921210" lon="0.224319">
        <ele>1828.1</ele>
        <time>2013-05-10T09:49:38Z</time>
      </trkpt>
      <trkpt lat="42.921124" lon="0.224313">
        <ele>1825.7</ele>
        <time>2013-05-10T09:49:46Z</time>
      </trkpt>
      <trkpt lat="42.921034" lon="0.224262">
        <ele>1823.3</ele>
        <time>2013-05-10T09:49:54Z</time>
      </trkpt>
      <trkpt lat="42.920944" lon="0.224277">
        <ele>1821.3</ele>
        <time>2013-05-10T09:50:02Z</time>
      </trkpt>
      <trkpt lat="42.920847" lon="0.224304">
        <ele>1818.9</ele>
        <time>2013-05-10T09:50:10Z</time>
      </trkpt>
      <trkpt lat="42.920761" lon="0.224317">
        <ele>1817.5</ele>
        <time>2013-05-10T09:50:17Z</time>
      </trkpt>
      <trkpt lat="42.920660" lon="0.224309">
        <ele>1816.6</ele>
        <time>2013-05-10T09:50:25Z</time>
      </trkpt>
      <trkpt lat="42.920557" lon="0.224312">
        <ele>1815.1</ele>
        <time>2013-05-10T09:50:33Z</time>
      </trkpt>
      <trkpt lat="42.920458" lon="0.224318">
        <ele>1814.2</ele>
        <time>2013-05-10T09:50:41Z</time>
      </trkpt>
      <trkpt lat="42.920364" lon="0.224324">
        <ele>1813.2</ele>
        <time>2013-05-10T09:50:49Z</time>
      </trkpt>
      <trkpt lat="42.920269" lon="0.224385">
        <ele>1812.7</ele>
        <time>2013-05-10T09:50:57Z</time>
      </trkpt>
      <trkpt lat="42.920175" lon="0.224449">
        <ele>1813.2</ele>
        <time>2013-05-10T09:51:06Z</time>
      </trkpt>
      <trkpt lat="42.920083" lon="0.224525">
        <ele>1813.7</ele>
        <time>2013-05-10T09:51:14Z</time>
      </trkpt>
      <trkpt lat="42.919874" lon="0.224614">
        <ele>1813.9</ele>
        <time>2013-05-10T09:51:33Z</time>
      </trkpt>
      <trkpt lat="42.919762" lon="0.224706">
        <ele>1812.5</ele>
        <time>2013-05-10T09:51:43Z</time>
      </trkpt>
      <trkpt lat="42.919698" lon="0.224744">
        <ele>1811.9</ele>
        <time>2013-05-10T09:51:53Z</time>
      </trkpt>
      <trkpt lat="42.919585" lon="0.224760">
        <ele>1811.2</ele>
        <time>2013-05-10T09:52:02Z</time>
      </trkpt>
      <trkpt lat="42.919481" lon="0.224815">
        <ele>1810.5</ele>
        <time>2013-05-10T09:52:11Z</time>
      </trkpt>
      <trkpt lat="42.919369" lon="0.224848">
        <ele>1809.8</ele>
        <time>2013-05-10T09:52:22Z</time>
      </trkpt>
      <trkpt lat="42.919202" lon="0.224928">
        <ele>1809.1</ele>
        <time>2013-05-10T09:52:35Z</time>
      </trkpt>
      <trkpt lat="42.919090" lon="0.224970">
        <ele>1809.9</ele>
        <time>2013-05-10T09:52:45Z</time>
      </trkpt>
      <trkpt lat="42.918966" lon="0.224988">
        <ele>1811.6</ele>
        <time>2013-05-10T09:52:56Z</time>
      </trkpt>
      <trkpt lat="42.918878" lon="0.225039">
        <ele>1811.9</ele>
        <time>2013-05-10T09:54:10Z</time>
      </trkpt>
      <trkpt lat="42.918785" lon="0.225064">
        <ele>1812.7</ele>
        <time>2013-05-10T09:57:48Z</time>
      </trkpt>
      <trkpt lat="42.918691" lon="0.225073">
        <ele>1814.0</ele>
        <time>2013-05-10T09:57:58Z</time>
      </trkpt>
      <trkpt lat="42.918586" lon="0.225064">
        <ele>1815.5</ele>
        <time>2013-05-10T09:58:07Z</time>
      </trkpt>
      <trkpt lat="42.918461" lon="0.225022">
        <ele>1818.1</ele>
        <time>2013-05-10T09:58:16Z</time>
      </trkpt>
      <trkpt lat="42.918330" lon="0.225004">
        <ele>1820.0</ele>
        <time>2013-05-10T09:58:25Z</time>
      </trkpt>
      <trkpt lat="42.918237" lon="0.224945">
        <ele>1819.1</ele>
        <time>2013-05-10T09:58:33Z</time>
      </trkpt>
      <trkpt lat="42.918087" lon="0.224927">
        <ele>1824.2</ele>
        <time>2013-05-10T09:58:41Z</time>
      </trkpt>
      <trkpt lat="42.918013" lon="0.224863">
        <ele>1821.3</ele>
        <time>2013-05-10T09:58:51Z</time>
      </trkpt>
      <trkpt lat="42.917916" lon="0.224848">
        <ele>1818.9</ele>
        <time>2013-05-10T09:59:01Z</time>
      </trkpt>
      <trkpt lat="42.917822" lon="0.224872">
        <ele>1816.6</ele>
        <time>2013-05-10T09:59:09Z</time>
      </trkpt>
      <trkpt lat="42.917737" lon="0.224930">
        <ele>1815.1</ele>
        <time>2013-05-10T09:59:17Z</time>
      </trkpt>
      <trkpt lat="42.917669" lon="0.225013">
        <ele>1814.2</ele>
        <time>2013-05-10T09:59:25Z</time>
      </trkpt>
      <trkpt lat="42.917587" lon="0.225111">
        <ele>1814.2</ele>
        <time>2013-05-10T09:59:34Z</time>
      </trkpt>
      <trkpt lat="42.917505" lon="0.225194">
        <ele>1813.7</ele>
        <time>2013-05-10T09:59:43Z</time>
      </trkpt>
      <trkpt lat="42.917421" lon="0.225247">
        <ele>1814.2</ele>
        <time>2013-05-10T09:59:52Z</time>
      </trkpt>
      <trkpt lat="42.917345" lon="0.225314">
        <ele>1813.7</ele>
        <time>2013-05-10T10:00:01Z</time>
      </trkpt>
      <trkpt lat="42.917254" lon="0.225368">
        <ele>1814.2</ele>
        <time>2013-05-10T10:00:10Z</time>
      </trkpt>
      <trkpt lat="42.917168" lon="0.225447">
        <ele>1815.6</ele>
        <time>2013-05-10T10:00:18Z</time>
      </trkpt>
      <trkpt lat="42.917089" lon="0.225456">
        <ele>1818.0</ele>
        <time>2013-05-10T10:00:30Z</time>
      </trkpt>
      <trkpt lat="42.916996" lon="0.225469">
        <ele>1821.8</ele>
        <time>2013-05-10T10:00:40Z</time>
      </trkpt>
      <trkpt lat="42.916906" lon="0.225465">
        <ele>1825.2</ele>
        <time>2013-05-10T10:00:52Z</time>
      </trkpt>
      <trkpt lat="42.916812" lon="0.225470">
        <ele>1828.1</ele>
        <time>2013-05-10T10:01:03Z</time>
      </trkpt>
      <trkpt lat="42.916726" lon="0.225515">
        <ele>1830.5</ele>
        <time>2013-05-10T10:01:15Z</time>
      </trkpt>
      <trkpt lat="42.916629" lon="0.225543">
        <ele>1830.5</ele>
        <time>2013-05-10T10:01:25Z</time>
      </trkpt>
      <trkpt lat="42.916540" lon="0.225586">
        <ele>1830.5</ele>
        <time>2013-05-10T10:01:34Z</time>
      </trkpt>
      <trkpt lat="42.916454" lon="0.225620">
        <ele>1831.0</ele>
        <time>2013-05-10T10:01:43Z</time>
      </trkpt>
      <trkpt lat="42.916360" lon="0.225648">
        <ele>1831.9</ele>
        <time>2013-05-10T10:01:52Z</time>
      </trkpt>
      <trkpt lat="42.916264" lon="0.225675">
        <ele>1832.4</ele>
        <time>2013-05-10T10:02:01Z</time>
      </trkpt>
      <trkpt lat="42.916166" lon="0.225694">
        <ele>1832.4</ele>
        <time>2013-05-10T10:02:09Z</time>
      </trkpt>
      <trkpt lat="42.916074" lon="0.225718">
        <ele>1833.8</ele>
        <time>2013-05-10T10:02:17Z</time>
      </trkpt>
      <trkpt lat="42.915983" lon="0.225745">
        <ele>1834.8</ele>
        <time>2013-05-10T10:02:27Z</time>
      </trkpt>
      <trkpt lat="42.915890" lon="0.225762">
        <ele>1833.8</ele>
        <time>2013-05-10T10:05:39Z</time>
      </trkpt>
      <trkpt lat="42.915811" lon="0.225789">
        <ele>1832.4</ele>
        <time>2013-05-10T10:05:51Z</time>
      </trkpt>
      <trkpt lat="42.915722" lon="0.225762">
        <ele>1833.8</ele>
        <time>2013-05-10T10:06:04Z</time>
      </trkpt>
      <trkpt lat="42.915625" lon="0.225759">
        <ele>1831.4</ele>
        <time>2013-05-10T10:06:16Z</time>
      </trkpt>
      <trkpt lat="42.915526" lon="0.225795">
        <ele>1831.4</ele>
        <time>2013-05-10T10:06:27Z</time>
      </trkpt>
      <trkpt lat="42.915432" lon="0.225804">
        <ele>1831.9</ele>
        <time>2013-05-10T10:06:37Z</time>
      </trkpt>
      <trkpt lat="42.915339" lon="0.225815">
        <ele>1832.4</ele>
        <time>2013-05-10T10:06:48Z</time>
      </trkpt>
      <trkpt lat="42.915244" lon="0.225809">
        <ele>1832.9</ele>
        <time>2013-05-10T10:07:00Z</time>
      </trkpt>
      <trkpt lat="42.915148" lon="0.225789">
        <ele>1834.3</ele>
        <time>2013-05-10T10:07:12Z</time>
      </trkpt>
      <trkpt lat="42.915058" lon="0.225739">
        <ele>1835.8</ele>
        <time>2013-05-10T10:07:21Z</time>
      </trkpt>
      <trkpt lat="42.914971" lon="0.225732">
        <ele>1837.7</ele>
        <time>2013-05-10T10:07:30Z</time>
      </trkpt>
      <trkpt lat="42.914876" lon="0.225731">
        <ele>1839.6</ele>
        <time>2013-05-10T10:07:40Z</time>
      </trkpt>
      <trkpt lat="42.914780" lon="0.225738">
        <ele>1840.6</ele>
        <time>2013-05-10T10:07:50Z</time>
      </trkpt>
      <trkpt lat="42.914692" lon="0.225775">
        <ele>1842.5</ele>
        <time>2013-05-10T10:08:01Z</time>
      </trkpt>
      <trkpt lat="42.914602" lon="0.225796">
        <ele>1844.4</ele>
        <time>2013-05-10T10:08:12Z</time>
      </trkpt>
      <trkpt lat="42.914514" lon="0.225849">
        <ele>1848.3</ele>
        <time>2013-05-10T10:08:26Z</time>
      </trkpt>
      <trkpt lat="42.914436" lon="0.225846">
        <ele>1850.2</ele>
        <time>2013-05-10T10:08:39Z</time>
      </trkpt>
      <trkpt lat="42.914353" lon="0.225892">
        <ele>1854.5</ele>
        <time>2013-05-10T10:08:53Z</time>
      </trkpt>
      <trkpt lat="42.914298" lon="0.225907">
        <ele>1856.9</ele>
        <time>2013-05-10T10:09:08Z</time>
      </trkpt>
      <trkpt lat="42.914220" lon="0.225942">
        <ele>1858.8</ele>
        <time>2013-05-10T10:09:26Z</time>
      </trkpt>
      <trkpt lat="42.914135" lon="0.226012">
        <ele>1860.3</ele>
        <time>2013-05-10T10:09:39Z</time>
      </trkpt>
      <trkpt lat="42.914060" lon="0.226059">
        <ele>1861.2</ele>
        <time>2013-05-10T10:09:53Z</time>
      </trkpt>
      <trkpt lat="42.913972" lon="0.226120">
        <ele>1863.7</ele>
        <time>2013-05-10T10:10:05Z</time>
      </trkpt>
      <trkpt lat="42.913879" lon="0.226165">
        <ele>1865.1</ele>
        <time>2013-05-10T10:10:17Z</time>
      </trkpt>
      <trkpt lat="42.913801" lon="0.226161">
        <ele>1867.0</ele>
        <time>2013-05-10T10:10:27Z</time>
      </trkpt>
      <trkpt lat="42.913715" lon="0.226152">
        <ele>1869.4</ele>
        <time>2013-05-10T10:10:39Z</time>
      </trkpt>
      <trkpt lat="42.913611" lon="0.226129">
        <ele>1870.9</ele>
        <time>2013-05-10T10:10:51Z</time>
      </trkpt>
      <trkpt lat="42.913520" lon="0.226074">
        <ele>1871.8</ele>
        <time>2013-05-10T10:11:00Z</time>
      </trkpt>
      <trkpt lat="42.913419" lon="0.226029">
        <ele>1871.8</ele>
        <time>2013-05-10T10:11:09Z</time>
      </trkpt>
      <trkpt lat="42.913325" lon="0.226021">
        <ele>1871.8</ele>
        <time>2013-05-10T10:11:18Z</time>
      </trkpt>
      <trkpt lat="42.913230" lon="0.226026">
        <ele>1872.3</ele>
        <time>2013-05-10T10:11:27Z</time>
      </trkpt>
      <trkpt lat="42.913148" lon="0.226031">
        <ele>1872.3</ele>
        <time>2013-05-10T10:11:37Z</time>
      </trkpt>
      <trkpt lat="42.913041" lon="0.226004">
        <ele>1872.8</ele>
        <time>2013-05-10T10:11:47Z</time>
      </trkpt>
      <trkpt lat="42.912933" lon="0.226009">
        <ele>1872.8</ele>
        <time>2013-05-10T10:11:56Z</time>
      </trkpt>
      <trkpt lat="42.912842" lon="0.226016">
        <ele>1871.8</ele>
        <time>2013-05-10T10:12:04Z</time>
      </trkpt>
      <trkpt lat="42.912763" lon="0.225983">
        <ele>1869.9</ele>
        <time>2013-05-10T10:12:12Z</time>
      </trkpt>
      <trkpt lat="42.912697" lon="0.225975">
        <ele>1869.9</ele>
        <time>2013-05-10T10:12:21Z</time>
      </trkpt>
      <trkpt lat="42.912579" lon="0.225993">
        <ele>1869.4</ele>
        <time>2013-05-10T10:12:30Z</time>
      </trkpt>
      <trkpt lat="42.912461" lon="0.226028">
        <ele>1868.9</ele>
        <time>2013-05-10T10:12:40Z</time>
      </trkpt>
      <trkpt lat="42.912373" lon="0.225997">
        <ele>1868.9</ele>
        <time>2013-05-10T10:14:07Z</time>
      </trkpt>
      <trkpt lat="42.912292" lon="0.225997">
        <ele>1868.5</ele>
        <time>2013-05-10T10:14:24Z</time>
      </trkpt>
      <trkpt lat="42.912175" lon="0.225999">
        <ele>1869.9</ele>
        <time>2013-05-10T10:14:34Z</time>
      </trkpt>
      <trkpt lat="42.912090" lon="0.225981">
        <ele>1872.3</ele>
        <time>2013-05-10T10:14:44Z</time>
      </trkpt>
      <trkpt lat="42.912018" lon="0.225878">
        <ele>1872.8</ele>
        <time>2013-05-10T10:14:54Z</time>
      </trkpt>
      <trkpt lat="42.911960" lon="0.225837">
        <ele>1872.3</ele>
        <time>2013-05-10T10:15:03Z</time>
      </trkpt>
      <trkpt lat="42.911861" lon="0.225790">
        <ele>1870.4</ele>
        <time>2013-05-10T10:15:12Z</time>
      </trkpt>
      <trkpt lat="42.911773" lon="0.225812">
        <ele>1868.5</ele>
        <time>2013-05-10T10:15:20Z</time>
      </trkpt>
      <trkpt lat="42.911673" lon="0.225864">
        <ele>1867.5</ele>
        <time>2013-05-10T10:15:28Z</time>
      </trkpt>
      <trkpt lat="42.911595" lon="0.225909">
        <ele>1866.1</ele>
        <time>2013-05-10T10:15:36Z</time>
      </trkpt>
      <trkpt lat="42.911496" lon="0.225947">
        <ele>1864.6</ele>
        <time>2013-05-10T10:15:45Z</time>
        <name>Cot Dessus</name>
      </trkpt>
      <trkpt lat="42.911399" lon="0.225917">
        <ele>1864.1</ele>
        <time>2013-05-10T10:15:54Z</time>
      </trkpt>
      <trkpt lat="42.911308" lon="0.225898">
        <ele>1863.7</ele>
        <time>2013-05-10T10:16:01Z</time>
      </trkpt>
      <trkpt lat="42.911188" lon="0.225917">
        <ele>1864.1</ele>
        <time>2013-05-10T10:16:09Z</time>
      </trkpt>
      <trkpt lat="42.911087" lon="0.225968">
        <ele>1864.6</ele>
        <time>2013-05-10T10:16:18Z</time>
      </trkpt>
      <trkpt lat="42.910997" lon="0.226006">
        <ele>1865.6</ele>
        <time>2013-05-10T10:16:28Z</time>
      </trkpt>
      <trkpt lat="42.910896" lon="0.225970">
        <ele>1866.1</ele>
        <time>2013-05-10T10:16:36Z</time>
      </trkpt>
      <trkpt lat="42.910801" lon="0.225992">
        <ele>1866.5</ele>
        <time>2013-05-10T10:16:44Z</time>
      </trkpt>
      <trkpt lat="42.910724" lon="0.226072">
        <ele>1868.5</ele>
        <time>2013-05-10T10:16:56Z</time>
      </trkpt>
      <trkpt lat="42.910654" lon="0.226178">
        <ele>1870.4</ele>
        <time>2013-05-10T10:17:09Z</time>
      </trkpt>
      <trkpt lat="42.910584" lon="0.226265">
        <ele>1872.8</ele>
        <time>2013-05-10T10:17:21Z</time>
      </trkpt>
      <trkpt lat="42.910542" lon="0.226384">
        <ele>1869.4</ele>
        <time>2013-05-10T10:17:33Z</time>
      </trkpt>
      <trkpt lat="42.910498" lon="0.226487">
        <ele>1876.6</ele>
        <time>2013-05-10T10:17:46Z</time>
      </trkpt>
      <trkpt lat="42.910451" lon="0.226602">
        <ele>1873.3</ele>
        <time>2013-05-10T10:17:58Z</time>
      </trkpt>
      <trkpt lat="42.910413" lon="0.226702">
        <ele>1880.5</ele>
        <time>2013-05-10T10:18:53Z</time>
      </trkpt>
      <trkpt lat="42.910363" lon="0.226821">
        <ele>1882.4</ele>
        <time>2013-05-10T10:19:09Z</time>
      </trkpt>
      <trkpt lat="42.910285" lon="0.226903">
        <ele>1883.8</ele>
        <time>2013-05-10T10:19:28Z</time>
      </trkpt>
      <trkpt lat="42.910195" lon="0.226977">
        <ele>1886.7</ele>
        <time>2013-05-10T10:19:48Z</time>
      </trkpt>
      <trkpt lat="42.910120" lon="0.227037">
        <ele>1890.1</ele>
        <time>2013-05-10T10:20:08Z</time>
      </trkpt>
      <trkpt lat="42.910040" lon="0.227076">
        <ele>1892.5</ele>
        <time>2013-05-10T10:20:25Z</time>
      </trkpt>
      <trkpt lat="42.909951" lon="0.227158">
        <ele>1895.4</ele>
        <time>2013-05-10T10:20:44Z</time>
      </trkpt>
      <trkpt lat="42.909870" lon="0.227191">
        <ele>1898.7</ele>
        <time>2013-05-10T10:21:05Z</time>
      </trkpt>
      <trkpt lat="42.909788" lon="0.227231">
        <ele>1901.1</ele>
        <time>2013-05-10T10:21:23Z</time>
      </trkpt>
      <trkpt lat="42.909719" lon="0.227258">
        <ele>1903.1</ele>
        <time>2013-05-10T10:21:41Z</time>
      </trkpt>
      <trkpt lat="42.909648" lon="0.227299">
        <ele>1907.4</ele>
        <time>2013-05-10T10:22:05Z</time>
      </trkpt>
      <trkpt lat="42.909550" lon="0.227314">
        <ele>1911.2</ele>
        <time>2013-05-10T10:22:28Z</time>
      </trkpt>
      <trkpt lat="42.909460" lon="0.227314">
        <ele>1915.1</ele>
        <time>2013-05-10T10:22:54Z</time>
      </trkpt>
      <trkpt lat="42.909370" lon="0.227304">
        <ele>1918.9</ele>
        <time>2013-05-10T10:23:25Z</time>
      </trkpt>
      <trkpt lat="42.909286" lon="0.227253">
        <ele>1922.3</ele>
        <time>2013-05-10T10:23:52Z</time>
      </trkpt>
      <trkpt lat="42.909203" lon="0.227217">
        <ele>1926.1</ele>
        <time>2013-05-10T10:24:13Z</time>
      </trkpt>
      <trkpt lat="42.909108" lon="0.227228">
        <ele>1931.4</ele>
        <time>2013-05-10T10:24:40Z</time>
      </trkpt>
      <trkpt lat="42.909030" lon="0.227257">
        <ele>1935.3</ele>
        <time>2013-05-10T10:25:04Z</time>
      </trkpt>
      <trkpt lat="42.908952" lon="0.227267">
        <ele>1939.1</ele>
        <time>2013-05-10T10:25:32Z</time>
      </trkpt>
      <trkpt lat="42.908876" lon="0.227242">
        <ele>1943.4</ele>
        <time>2013-05-10T10:25:53Z</time>
      </trkpt>
      <trkpt lat="42.908806" lon="0.227199">
        <ele>1947.3</ele>
        <time>2013-05-10T10:27:24Z</time>
      </trkpt>
      <trkpt lat="42.908736" lon="0.227233">
        <ele>1950.2</ele>
        <time>2013-05-10T10:27:42Z</time>
      </trkpt>
      <trkpt lat="42.908662" lon="0.227241">
        <ele>1955.0</ele>
        <time>2013-05-10T10:28:02Z</time>
      </trkpt>
      <trkpt lat="42.908586" lon="0.227244">
        <ele>1959.3</ele>
        <time>2013-05-10T10:28:22Z</time>
      </trkpt>
      <trkpt lat="42.908508" lon="0.227238">
        <ele>1963.2</ele>
        <time>2013-05-10T10:28:41Z</time>
      </trkpt>
      <trkpt lat="42.908433" lon="0.227203">
        <ele>1967.5</ele>
        <time>2013-05-10T10:29:02Z</time>
      </trkpt>
      <trkpt lat="42.908347" lon="0.227159">
        <ele>1972.8</ele>
        <time>2013-05-10T10:29:37Z</time>
      </trkpt>
      <trkpt lat="42.908274" lon="0.227153">
        <ele>1976.1</ele>
        <time>2013-05-10T10:30:01Z</time>
      </trkpt>
      <trkpt lat="42.908183" lon="0.227110">
        <ele>1980.9</ele>
        <time>2013-05-10T10:30:25Z</time>
      </trkpt>
      <trkpt lat="42.908125" lon="0.227127">
        <ele>1984.8</ele>
        <time>2013-05-10T10:30:44Z</time>
      </trkpt>
      <trkpt lat="42.908046" lon="0.227155">
        <ele>1989.1</ele>
        <time>2013-05-10T10:31:08Z</time>
      </trkpt>
      <trkpt lat="42.907950" lon="0.227100">
        <ele>1992.5</ele>
        <time>2013-05-10T10:34:05Z</time>
      </trkpt>
      <trkpt lat="42.907866" lon="0.227076">
        <ele>1996.8</ele>
        <time>2013-05-10T10:34:25Z</time>
      </trkpt>
      <trkpt lat="42.907814" lon="0.227046">
        <ele>2001.6</ele>
        <time>2013-05-10T10:34:49Z</time>
      </trkpt>
      <trkpt lat="42.907725" lon="0.227053">
        <ele>2005.4</ele>
        <time>2013-05-10T10:35:10Z</time>
      </trkpt>
      <trkpt lat="42.907661" lon="0.227002">
        <ele>2009.8</ele>
        <time>2013-05-10T10:35:34Z</time>
      </trkpt>
      <trkpt lat="42.907582" lon="0.227022">
        <ele>2013.1</ele>
        <time>2013-05-10T10:35:57Z</time>
      </trkpt>
      <trkpt lat="42.907503" lon="0.227048">
        <ele>2017.9</ele>
        <time>2013-05-10T10:36:19Z</time>
      </trkpt>
      <trkpt lat="42.907435" lon="0.227026">
        <ele>2022.8</ele>
        <time>2013-05-10T10:36:44Z</time>
      </trkpt>
      <trkpt lat="42.907355" lon="0.227028">
        <ele>2026.6</ele>
        <time>2013-05-10T10:37:07Z</time>
      </trkpt>
      <trkpt lat="42.907286" lon="0.226999">
        <ele>2031.4</ele>
        <time>2013-05-10T10:37:30Z</time>
      </trkpt>
      <trkpt lat="42.907193" lon="0.227091">
        <ele>2038.6</ele>
        <time>2013-05-10T10:38:27Z</time>
      </trkpt>
      <trkpt lat="42.907127" lon="0.227085">
        <ele>2041.5</ele>
        <time>2013-05-10T10:40:53Z</time>
      </trkpt>
      <trkpt lat="42.907055" lon="0.227111">
        <ele>2045.3</ele>
        <time>2013-05-10T10:41:09Z</time>
      </trkpt>
      <trkpt lat="42.906996" lon="0.227069">
        <ele>2050.1</ele>
        <time>2013-05-10T10:41:32Z</time>
      </trkpt>
      <trkpt lat="42.906946" lon="0.226997">
        <ele>2055.0</ele>
        <time>2013-05-10T10:41:54Z</time>
      </trkpt>
      <trkpt lat="42.906888" lon="0.226970">
        <ele>1998.8</ele>
        <time>2013-05-10T10:42:14Z</time>
      </trkpt>
      <trkpt lat="42.906828" lon="0.226950">
        <ele>2062.6</ele>
        <time>2013-05-10T10:42:33Z</time>
      </trkpt>
      <trkpt lat="42.906770" lon="0.227043">
        <ele>2066.5</ele>
        <time>2013-05-10T10:42:56Z</time>
      </trkpt>
      <trkpt lat="42.906665" lon="0.227075">
        <ele>2074.7</ele>
        <time>2013-05-10T10:43:40Z</time>
      </trkpt>
      <trkpt lat="42.906602" lon="0.226982">
        <ele>2078.0</ele>
        <time>2013-05-10T10:44:00Z</time>
      </trkpt>
      <trkpt lat="42.906526" lon="0.226985">
        <ele>2085.2</ele>
        <time>2013-05-10T10:45:50Z</time>
      </trkpt>
      <trkpt lat="42.906522" lon="0.227003">
        <ele>2083.3</ele>
        <time>2013-05-10T10:47:31Z</time>
      </trkpt>
      <trkpt lat="42.906449" lon="0.226969">
        <ele>2087.6</ele>
        <time>2013-05-10T10:48:16Z</time>
      </trkpt>
      <trkpt lat="42.906384" lon="0.226870">
        <ele>2091.5</ele>
        <time>2013-05-10T10:48:38Z</time>
      </trkpt>
      <trkpt lat="42.906322" lon="0.226769">
        <ele>2094.9</ele>
        <time>2013-05-10T10:49:01Z</time>
      </trkpt>
      <trkpt lat="42.906263" lon="0.226691">
        <ele>2098.7</ele>
        <time>2013-05-10T10:49:27Z</time>
      </trkpt>
      <trkpt lat="42.906207" lon="0.226644">
        <ele>2102.1</ele>
        <time>2013-05-10T10:50:26Z</time>
      </trkpt>
      <trkpt lat="42.906126" lon="0.226599">
        <ele>2106.4</ele>
        <time>2013-05-10T10:50:48Z</time>
      </trkpt>
      <trkpt lat="42.906097" lon="0.226736">
        <ele>2109.8</ele>
        <time>2013-05-10T10:51:07Z</time>
      </trkpt>
      <trkpt lat="42.906075" lon="0.226826">
        <ele>2113.1</ele>
        <time>2013-05-10T10:51:25Z</time>
      </trkpt>
      <trkpt lat="42.906052" lon="0.226948">
        <ele>2118.9</ele>
        <time>2013-05-10T10:52:00Z</time>
      </trkpt>
      <trkpt lat="42.905983" lon="0.227019">
        <ele>2122.7</ele>
        <time>2013-05-10T10:53:02Z</time>
      </trkpt>
      <trkpt lat="42.905950" lon="0.227140">
        <ele>2127.5</ele>
        <time>2013-05-10T10:53:31Z</time>
      </trkpt>
      <trkpt lat="42.905878" lon="0.227214">
        <ele>2131.9</ele>
        <time>2013-05-10T10:53:57Z</time>
      </trkpt>
      <trkpt lat="42.905820" lon="0.227229">
        <ele>2135.7</ele>
        <time>2013-05-10T10:54:27Z</time>
      </trkpt>
      <trkpt lat="42.905739" lon="0.227141">
        <ele>2140.0</ele>
        <time>2013-05-10T10:55:01Z</time>
      </trkpt>
      <trkpt lat="42.905687" lon="0.227216">
        <ele>2143.9</ele>
        <time>2013-05-10T10:55:30Z</time>
      </trkpt>
      <trkpt lat="42.905634" lon="0.227166">
        <ele>2147.7</ele>
        <time>2013-05-10T10:56:25Z</time>
      </trkpt>
      <trkpt lat="42.905571" lon="0.227164">
        <ele>2152.5</ele>
        <time>2013-05-10T10:56:51Z</time>
      </trkpt>
      <trkpt lat="42.905506" lon="0.227264">
        <ele>2155.4</ele>
        <time>2013-05-10T10:57:12Z</time>
      </trkpt>
      <trkpt lat="42.905442" lon="0.227300">
        <ele>2159.3</ele>
        <time>2013-05-10T10:57:43Z</time>
      </trkpt>
      <trkpt lat="42.905384" lon="0.227385">
        <ele>2163.1</ele>
        <time>2013-05-10T10:58:12Z</time>
      </trkpt>
      <trkpt lat="42.905295" lon="0.227326">
        <ele>2167.4</ele>
        <time>2013-05-10T10:58:50Z</time>
      </trkpt>
      <trkpt lat="42.905205" lon="0.227270">
        <ele>2173.2</ele>
        <time>2013-05-10T10:59:23Z</time>
      </trkpt>
      <trkpt lat="42.905096" lon="0.227282">
        <ele>2179.0</ele>
        <time>2013-05-10T10:59:57Z</time>
      </trkpt>
      <trkpt lat="42.905031" lon="0.227173">
        <ele>2181.9</ele>
        <time>2013-05-10T11:00:54Z</time>
      </trkpt>
      <trkpt lat="42.904956" lon="0.227236">
        <ele>2185.2</ele>
        <time>2013-05-10T11:01:14Z</time>
      </trkpt>
      <trkpt lat="42.904862" lon="0.227237">
        <ele>2188.6</ele>
        <time>2013-05-10T11:01:46Z</time>
      </trkpt>
      <trkpt lat="42.904758" lon="0.227213">
        <ele>2193.4</ele>
        <time>2013-05-10T11:02:11Z</time>
      </trkpt>
      <trkpt lat="42.904680" lon="0.227191">
        <ele>2196.8</ele>
        <time>2013-05-10T11:02:33Z</time>
      </trkpt>
      <trkpt lat="42.904603" lon="0.227126">
        <ele>2200.1</ele>
        <time>2013-05-10T11:03:21Z</time>
      </trkpt>
      <trkpt lat="42.904524" lon="0.227015">
        <ele>2204.4</ele>
        <time>2013-05-10T11:03:52Z</time>
      </trkpt>
      <trkpt lat="42.904432" lon="0.226988">
        <ele>2209.2</ele>
        <time>2013-05-10T11:04:19Z</time>
      </trkpt>
      <trkpt lat="42.904376" lon="0.227019">
        <ele>2212.1</ele>
        <time>2013-05-10T11:05:18Z</time>
      </trkpt>
      <trkpt lat="42.904306" lon="0.227066">
        <ele>2215.5</ele>
        <time>2013-05-10T11:05:41Z</time>
      </trkpt>
      <trkpt lat="42.904214" lon="0.227049">
        <ele>2220.3</ele>
        <time>2013-05-10T11:06:11Z</time>
      </trkpt>
      <trkpt lat="42.904129" lon="0.227061">
        <ele>2222.7</ele>
        <time>2013-05-10T11:08:26Z</time>
      </trkpt>
      <trkpt lat="42.904046" lon="0.227088">
        <ele>2225.6</ele>
        <time>2013-05-10T11:09:07Z</time>
      </trkpt>
      <trkpt lat="42.903949" lon="0.227119">
        <ele>2228.0</ele>
        <time>2013-05-10T11:09:24Z</time>
      </trkpt>
      <trkpt lat="42.903868" lon="0.227163">
        <ele>2229.9</ele>
        <time>2013-05-10T11:09:41Z</time>
      </trkpt>
      <trkpt lat="42.903778" lon="0.227155">
        <ele>2232.8</ele>
        <time>2013-05-10T11:10:02Z</time>
      </trkpt>
      <trkpt lat="42.903709" lon="0.227174">
        <ele>2235.2</ele>
        <time>2013-05-10T11:10:19Z</time>
      </trkpt>
      <trkpt lat="42.903656" lon="0.227135">
        <ele>2238.1</ele>
        <time>2013-05-10T11:10:39Z</time>
      </trkpt>
      <trkpt lat="42.903575" lon="0.227143">
        <ele>2240.0</ele>
        <time>2013-05-10T11:11:00Z</time>
      </trkpt>
      <trkpt lat="42.903487" lon="0.227165">
        <ele>2243.4</ele>
        <time>2013-05-10T11:11:18Z</time>
      </trkpt>
      <trkpt lat="42.903402" lon="0.227123">
        <ele>2244.3</ele>
        <time>2013-05-10T11:11:33Z</time>
      </trkpt>
      <trkpt lat="42.903314" lon="0.227086">
        <ele>2246.3</ele>
        <time>2013-05-10T11:11:48Z</time>
      </trkpt>
      <trkpt lat="42.903245" lon="0.227005">
        <ele>2247.7</ele>
        <time>2013-05-10T11:12:01Z</time>
      </trkpt>
      <trkpt lat="42.903184" lon="0.226932">
        <ele>2249.6</ele>
        <time>2013-05-10T11:12:13Z</time>
      </trkpt>
      <trkpt lat="42.903119" lon="0.226854">
        <ele>2251.1</ele>
        <time>2013-05-10T11:12:27Z</time>
      </trkpt>
      <trkpt lat="42.903081" lon="0.226736">
        <ele>2252.0</ele>
        <time>2013-05-10T11:12:39Z</time>
      </trkpt>
      <trkpt lat="42.903023" lon="0.226633">
        <ele>2252.5</ele>
        <time>2013-05-10T11:12:53Z</time>
      </trkpt>
      <trkpt lat="42.902990" lon="0.226522">
        <ele>2252.5</ele>
        <time>2013-05-10T11:13:05Z</time>
      </trkpt>
      <trkpt lat="42.902930" lon="0.226430">
        <ele>2253.5</ele>
        <time>2013-05-10T11:13:17Z</time>
      </trkpt>
      <trkpt lat="42.902868" lon="0.226355">
        <ele>2254.9</ele>
        <time>2013-05-10T11:13:28Z</time>
      </trkpt>
      <trkpt lat="42.902802" lon="0.226261">
        <ele>2255.9</ele>
        <time>2013-05-10T11:13:39Z</time>
      </trkpt>
      <trkpt lat="42.902738" lon="0.226208">
        <ele>2256.8</ele>
        <time>2013-05-10T11:13:51Z</time>
      </trkpt>
      <trkpt lat="42.902674" lon="0.226105">
        <ele>2258.3</ele>
        <time>2013-05-10T11:14:04Z</time>
      </trkpt>
      <trkpt lat="42.902606" lon="0.226012">
        <ele>2260.7</ele>
        <time>2013-05-10T11:14:49Z</time>
      </trkpt>
      <trkpt lat="42.902525" lon="0.225995">
        <ele>2262.6</ele>
        <time>2013-05-10T11:15:02Z</time>
      </trkpt>
      <trkpt lat="42.902461" lon="0.225885">
        <ele>2264.0</ele>
        <time>2013-05-10T11:15:18Z</time>
      </trkpt>
      <trkpt lat="42.902420" lon="0.225791">
        <ele>2263.1</ele>
        <time>2013-05-10T11:15:30Z</time>
      </trkpt>
      <trkpt lat="42.902342" lon="0.225760">
        <ele>2264.5</ele>
        <time>2013-05-10T11:15:45Z</time>
      </trkpt>
      <trkpt lat="42.902264" lon="0.225709">
        <ele>2266.4</ele>
        <time>2013-05-10T11:16:02Z</time>
      </trkpt>
      <trkpt lat="42.902172" lon="0.225692">
        <ele>2268.9</ele>
        <time>2013-05-10T11:16:19Z</time>
      </trkpt>
      <trkpt lat="42.902072" lon="0.225669">
        <ele>2271.2</ele>
        <time>2013-05-10T11:16:36Z</time>
      </trkpt>
      <trkpt lat="42.901987" lon="0.225611">
        <ele>2272.7</ele>
        <time>2013-05-10T11:16:52Z</time>
      </trkpt>
      <trkpt lat="42.901889" lon="0.225595">
        <ele>2275.1</ele>
        <time>2013-05-10T11:17:20Z</time>
      </trkpt>
      <trkpt lat="42.901802" lon="0.225573">
        <ele>2277.0</ele>
        <time>2013-05-10T11:17:33Z</time>
      </trkpt>
      <trkpt lat="42.901730" lon="0.225488">
        <ele>2278.9</ele>
        <time>2013-05-10T11:17:46Z</time>
      </trkpt>
      <trkpt lat="42.901668" lon="0.225422">
        <ele>2280.9</ele>
        <time>2013-05-10T11:18:02Z</time>
      </trkpt>
      <trkpt lat="42.901584" lon="0.225392">
        <ele>2284.7</ele>
        <time>2013-05-10T11:18:23Z</time>
      </trkpt>
      <trkpt lat="42.901513" lon="0.225291">
        <ele>2288.6</ele>
        <time>2013-05-10T11:18:39Z</time>
      </trkpt>
      <trkpt lat="42.901438" lon="0.225229">
        <ele>2290.0</ele>
        <time>2013-05-10T11:19:03Z</time>
      </trkpt>
      <trkpt lat="42.901366" lon="0.225146">
        <ele>2291.0</ele>
        <time>2013-05-10T11:19:17Z</time>
      </trkpt>
      <trkpt lat="42.901279" lon="0.225087">
        <ele>2294.3</ele>
        <time>2013-05-10T11:19:36Z</time>
      </trkpt>
      <trkpt lat="42.901230" lon="0.225089">
        <ele>2297.2</ele>
        <time>2013-05-10T11:20:35Z</time>
      </trkpt>
      <trkpt lat="42.901142" lon="0.225009">
        <ele>2300.1</ele>
        <time>2013-05-10T11:21:13Z</time>
      </trkpt>
      <trkpt lat="42.901078" lon="0.225028">
        <ele>2301.1</ele>
        <time>2013-05-10T11:22:33Z</time>
      </trkpt>
      <trkpt lat="42.901000" lon="0.225047">
        <ele>2304.9</ele>
        <time>2013-05-10T11:22:47Z</time>
      </trkpt>
      <trkpt lat="42.900949" lon="0.224936">
        <ele>2308.7</ele>
        <time>2013-05-10T11:23:50Z</time>
      </trkpt>
      <trkpt lat="42.900873" lon="0.224878">
        <ele>2313.1</ele>
        <time>2013-05-10T11:24:02Z</time>
      </trkpt>
      <trkpt lat="42.900798" lon="0.224844">
        <ele>2315.9</ele>
        <time>2013-05-10T11:24:20Z</time>
      </trkpt>
      <trkpt lat="42.900715" lon="0.224779">
        <ele>2319.3</ele>
        <time>2013-05-10T11:24:37Z</time>
      </trkpt>
      <trkpt lat="42.900647" lon="0.224758">
        <ele>2323.2</ele>
        <time>2013-05-10T11:24:57Z</time>
      </trkpt>
      <trkpt lat="42.900572" lon="0.224742">
        <ele>2327.0</ele>
        <time>2013-05-10T11:25:14Z</time>
      </trkpt>
      <trkpt lat="42.900496" lon="0.224666">
        <ele>2329.4</ele>
        <time>2013-05-10T11:26:13Z</time>
      </trkpt>
      <trkpt lat="42.900399" lon="0.224646">
        <ele>2330.9</ele>
        <time>2013-05-10T11:26:25Z</time>
      </trkpt>
      <trkpt lat="42.900313" lon="0.224662">
        <ele>2332.8</ele>
        <time>2013-05-10T11:26:40Z</time>
      </trkpt>
      <trkpt lat="42.900225" lon="0.224674">
        <ele>2336.1</ele>
        <time>2013-05-10T11:26:57Z</time>
      </trkpt>
      <trkpt lat="42.900133" lon="0.224675">
        <ele>2339.5</ele>
        <time>2013-05-10T11:27:13Z</time>
      </trkpt>
      <trkpt lat="42.900052" lon="0.224768">
        <ele>2341.4</ele>
        <time>2013-05-10T11:27:31Z</time>
      </trkpt>
      <trkpt lat="42.899971" lon="0.224762">
        <ele>2344.3</ele>
        <time>2013-05-10T11:27:49Z</time>
      </trkpt>
      <trkpt lat="42.899898" lon="0.224725">
        <ele>2346.2</ele>
        <time>2013-05-10T11:28:25Z</time>
      </trkpt>
      <trkpt lat="42.899796" lon="0.224724">
        <ele>2346.2</ele>
        <time>2013-05-10T11:28:32Z</time>
      </trkpt>
      <trkpt lat="42.899705" lon="0.224761">
        <ele>2349.6</ele>
        <time>2013-05-10T11:28:40Z</time>
      </trkpt>
      <trkpt lat="42.899625" lon="0.224828">
        <ele>2349.1</ele>
        <time>2013-05-10T11:28:50Z</time>
      </trkpt>
      <trkpt lat="42.899558" lon="0.224929">
        <ele>2350.1</ele>
        <time>2013-05-10T11:28:59Z</time>
      </trkpt>
      <trkpt lat="42.899495" lon="0.225039">
        <ele>2349.1</ele>
        <time>2013-05-10T11:29:07Z</time>
      </trkpt>
      <trkpt lat="42.899423" lon="0.225137">
        <ele>2353.4</ele>
        <time>2013-05-10T11:29:17Z</time>
      </trkpt>
      <trkpt lat="42.899340" lon="0.225228">
        <ele>2355.4</ele>
        <time>2013-05-10T11:29:27Z</time>
      </trkpt>
      <trkpt lat="42.899254" lon="0.225299">
        <ele>2310.3</ele>
        <time>2013-05-10T11:31:57Z</time>
      </trkpt>
      <trkpt lat="42.899227" lon="0.225332">
        <ele>2309.9</ele>
        <time>2013-05-10T11:32:36Z</time>
        <name>Soum de Marianette</name>
      </trkpt>
      <trkpt lat="42.899217" lon="0.225349">
        <ele>2309.6</ele>
        <time>2013-05-10T11:34:39Z</time>
      </trkpt>
      <trkpt lat="42.899220" lon="0.225337">
        <ele>2309.5</ele>
        <time>2013-05-10T12:34:35Z</time>
      </trkpt>
      <trkpt lat="42.899252" lon="0.225294">
        <ele>2311.0</ele>
        <time>2013-05-10T12:35:17Z</time>
      </trkpt>
      <trkpt lat="42.899283" lon="0.225261">
        <ele>2311.2</ele>
        <time>2013-05-10T12:36:03Z</time>
      </trkpt>
      <trkpt lat="42.899350" lon="0.225211">
        <ele>2311.6</ele>
        <time>2013-05-10T12:36:17Z</time>
      </trkpt>
      <trkpt lat="42.899408" lon="0.225114">
        <ele>2355.4</ele>
        <time>2013-05-10T12:36:53Z</time>
      </trkpt>
      <trkpt lat="42.899480" lon="0.225014">
        <ele>2316.0</ele>
        <time>2013-05-10T12:37:00Z</time>
      </trkpt>
      <trkpt lat="42.899535" lon="0.224904">
        <ele>2353.4</ele>
        <time>2013-05-10T12:37:09Z</time>
      </trkpt>
      <trkpt lat="42.899618" lon="0.224839">
        <ele>2351.0</ele>
        <time>2013-05-10T12:37:23Z</time>
      </trkpt>
      <trkpt lat="42.899705" lon="0.224766">
        <ele>2351.5</ele>
        <time>2013-05-10T12:37:31Z</time>
      </trkpt>
      <trkpt lat="42.899798" lon="0.224713">
        <ele>2349.6</ele>
        <time>2013-05-10T12:37:40Z</time>
      </trkpt>
      <trkpt lat="42.899891" lon="0.224711">
        <ele>2348.6</ele>
        <time>2013-05-10T12:37:49Z</time>
      </trkpt>
      <trkpt lat="42.899994" lon="0.224694">
        <ele>2348.2</ele>
        <time>2013-05-10T12:38:00Z</time>
      </trkpt>
      <trkpt lat="42.900073" lon="0.224673">
        <ele>2345.8</ele>
        <time>2013-05-10T12:38:17Z</time>
      </trkpt>
      <trkpt lat="42.900171" lon="0.224629">
        <ele>2341.4</ele>
        <time>2013-05-10T12:38:26Z</time>
      </trkpt>
      <trkpt lat="42.900259" lon="0.224663">
        <ele>2338.1</ele>
        <time>2013-05-10T12:38:42Z</time>
      </trkpt>
      <trkpt lat="42.900350" lon="0.224651">
        <ele>2334.2</ele>
        <time>2013-05-10T12:38:53Z</time>
      </trkpt>
      <trkpt lat="42.900438" lon="0.224629">
        <ele>2332.8</ele>
        <time>2013-05-10T12:39:01Z</time>
      </trkpt>
      <trkpt lat="42.900528" lon="0.224652">
        <ele>2331.3</ele>
        <time>2013-05-10T12:39:11Z</time>
      </trkpt>
      <trkpt lat="42.900601" lon="0.224693">
        <ele>2328.4</ele>
        <time>2013-05-10T12:39:24Z</time>
      </trkpt>
      <trkpt lat="42.900690" lon="0.224702">
        <ele>2323.6</ele>
        <time>2013-05-10T12:39:40Z</time>
      </trkpt>
      <trkpt lat="42.900770" lon="0.224744">
        <ele>2320.3</ele>
        <time>2013-05-10T12:39:52Z</time>
      </trkpt>
      <trkpt lat="42.900850" lon="0.224803">
        <ele>2315.9</ele>
        <time>2013-05-10T12:40:04Z</time>
      </trkpt>
      <trkpt lat="42.900920" lon="0.224879">
        <ele>2312.6</ele>
        <time>2013-05-10T12:40:14Z</time>
      </trkpt>
      <trkpt lat="42.900982" lon="0.224942">
        <ele>2309.2</ele>
        <time>2013-05-10T12:40:23Z</time>
      </trkpt>
      <trkpt lat="42.901021" lon="0.225016">
        <ele>2307.3</ele>
        <time>2013-05-10T12:40:33Z</time>
      </trkpt>
      <trkpt lat="42.901092" lon="0.225062">
        <ele>2303.5</ele>
        <time>2013-05-10T12:40:45Z</time>
      </trkpt>
      <trkpt lat="42.901162" lon="0.225074">
        <ele>2302.0</ele>
        <time>2013-05-10T12:41:18Z</time>
      </trkpt>
      <trkpt lat="42.901250" lon="0.225068">
        <ele>2297.7</ele>
        <time>2013-05-10T12:41:28Z</time>
      </trkpt>
      <trkpt lat="42.901297" lon="0.225135">
        <ele>2296.2</ele>
        <time>2013-05-10T12:41:38Z</time>
      </trkpt>
      <trkpt lat="42.901383" lon="0.225178">
        <ele>2293.4</ele>
        <time>2013-05-10T12:41:47Z</time>
      </trkpt>
      <trkpt lat="42.901467" lon="0.225238">
        <ele>2291.9</ele>
        <time>2013-05-10T12:41:56Z</time>
      </trkpt>
      <trkpt lat="42.901533" lon="0.225323">
        <ele>2289.5</ele>
        <time>2013-05-10T12:42:06Z</time>
      </trkpt>
      <trkpt lat="42.901613" lon="0.225416">
        <ele>2285.7</ele>
        <time>2013-05-10T12:42:18Z</time>
      </trkpt>
      <trkpt lat="42.901697" lon="0.225439">
        <ele>2282.8</ele>
        <time>2013-05-10T12:42:29Z</time>
      </trkpt>
      <trkpt lat="42.901784" lon="0.225496">
        <ele>2280.4</ele>
        <time>2013-05-10T12:42:40Z</time>
      </trkpt>
      <trkpt lat="42.901864" lon="0.225566">
        <ele>2278.0</ele>
        <time>2013-05-10T12:42:49Z</time>
      </trkpt>
      <trkpt lat="42.901956" lon="0.225612">
        <ele>2276.5</ele>
        <time>2013-05-10T12:42:57Z</time>
      </trkpt>
      <trkpt lat="42.902046" lon="0.225653">
        <ele>2275.6</ele>
        <time>2013-05-10T12:43:06Z</time>
      </trkpt>
      <trkpt lat="42.902141" lon="0.225663">
        <ele>2273.2</ele>
        <time>2013-05-10T12:43:17Z</time>
      </trkpt>
      <trkpt lat="42.902240" lon="0.225653">
        <ele>2270.8</ele>
        <time>2013-05-10T12:43:27Z</time>
      </trkpt>
      <trkpt lat="42.902326" lon="0.225711">
        <ele>2268.4</ele>
        <time>2013-05-10T12:43:38Z</time>
      </trkpt>
      <trkpt lat="42.902409" lon="0.225772">
        <ele>2266.9</ele>
        <time>2013-05-10T12:43:53Z</time>
      </trkpt>
      <trkpt lat="42.902484" lon="0.225840">
        <ele>2266.0</ele>
        <time>2013-05-10T12:44:06Z</time>
      </trkpt>
      <trkpt lat="42.902543" lon="0.225949">
        <ele>2265.0</ele>
        <time>2013-05-10T12:44:18Z</time>
      </trkpt>
      <trkpt lat="42.902611" lon="0.226024">
        <ele>2264.5</ele>
        <time>2013-05-10T12:44:28Z</time>
      </trkpt>
      <trkpt lat="42.902688" lon="0.226081">
        <ele>2261.2</ele>
        <time>2013-05-10T12:44:38Z</time>
      </trkpt>
      <trkpt lat="42.902761" lon="0.226182">
        <ele>2260.2</ele>
        <time>2013-05-10T12:44:48Z</time>
      </trkpt>
      <trkpt lat="42.902837" lon="0.226238">
        <ele>2258.3</ele>
        <time>2013-05-10T12:44:57Z</time>
      </trkpt>
      <trkpt lat="42.902919" lon="0.226291">
        <ele>2256.4</ele>
        <time>2013-05-10T12:45:06Z</time>
      </trkpt>
      <trkpt lat="42.903012" lon="0.226344">
        <ele>2253.9</ele>
        <time>2013-05-10T12:45:15Z</time>
      </trkpt>
      <trkpt lat="42.903092" lon="0.226407">
        <ele>2252.0</ele>
        <time>2013-05-10T12:45:23Z</time>
      </trkpt>
      <trkpt lat="42.903172" lon="0.226480">
        <ele>2251.1</ele>
        <time>2013-05-10T12:45:31Z</time>
      </trkpt>
      <trkpt lat="42.903260" lon="0.226535">
        <ele>2249.1</ele>
        <time>2013-05-10T12:45:40Z</time>
      </trkpt>
      <trkpt lat="42.903343" lon="0.226583">
        <ele>2246.7</ele>
        <time>2013-05-10T12:45:48Z</time>
      </trkpt>
      <trkpt lat="42.903424" lon="0.226642">
        <ele>2245.3</ele>
        <time>2013-05-10T12:45:57Z</time>
      </trkpt>
      <trkpt lat="42.903525" lon="0.226669">
        <ele>2242.4</ele>
        <time>2013-05-10T12:46:07Z</time>
      </trkpt>
      <trkpt lat="42.903617" lon="0.226716">
        <ele>2239.5</ele>
        <time>2013-05-10T12:46:16Z</time>
      </trkpt>
      <trkpt lat="42.903704" lon="0.226772">
        <ele>2237.6</ele>
        <time>2013-05-10T12:46:25Z</time>
      </trkpt>
      <trkpt lat="42.903796" lon="0.226810">
        <ele>2234.2</ele>
        <time>2013-05-10T12:46:35Z</time>
      </trkpt>
      <trkpt lat="42.903890" lon="0.226770">
        <ele>2231.8</ele>
        <time>2013-05-10T12:46:44Z</time>
      </trkpt>
      <trkpt lat="42.903982" lon="0.226806">
        <ele>2229.4</ele>
        <time>2013-05-10T12:46:53Z</time>
      </trkpt>
      <trkpt lat="42.904072" lon="0.226876">
        <ele>2226.6</ele>
        <time>2013-05-10T12:47:02Z</time>
      </trkpt>
      <trkpt lat="42.904154" lon="0.226949">
        <ele>2225.1</ele>
        <time>2013-05-10T12:47:11Z</time>
      </trkpt>
      <trkpt lat="42.904249" lon="0.226978">
        <ele>2223.2</ele>
        <time>2013-05-10T12:47:21Z</time>
      </trkpt>
      <trkpt lat="42.904333" lon="0.227038">
        <ele>2218.9</ele>
        <time>2013-05-10T12:47:34Z</time>
      </trkpt>
      <trkpt lat="42.904424" lon="0.227086">
        <ele>2213.1</ele>
        <time>2013-05-10T12:47:49Z</time>
      </trkpt>
      <trkpt lat="42.904511" lon="0.227082">
        <ele>2208.8</ele>
        <time>2013-05-10T12:48:02Z</time>
      </trkpt>
      <trkpt lat="42.904563" lon="0.227168">
        <ele>2204.9</ele>
        <time>2013-05-10T12:48:15Z</time>
      </trkpt>
      <trkpt lat="42.904643" lon="0.227163">
        <ele>2201.6</ele>
        <time>2013-05-10T12:48:25Z</time>
      </trkpt>
      <trkpt lat="42.904728" lon="0.227130">
        <ele>2198.7</ele>
        <time>2013-05-10T12:48:36Z</time>
      </trkpt>
      <trkpt lat="42.904827" lon="0.227143">
        <ele>2193.9</ele>
        <time>2013-05-10T12:48:48Z</time>
      </trkpt>
      <trkpt lat="42.904927" lon="0.227117">
        <ele>2190.5</ele>
        <time>2013-05-10T12:49:01Z</time>
      </trkpt>
      <trkpt lat="42.904991" lon="0.227137">
        <ele>2187.6</ele>
        <time>2013-05-10T12:49:18Z</time>
      </trkpt>
      <trkpt lat="42.905096" lon="0.227147">
        <ele>2183.8</ele>
        <time>2013-05-10T12:49:29Z</time>
      </trkpt>
      <trkpt lat="42.905156" lon="0.227233">
        <ele>2181.9</ele>
        <time>2013-05-10T12:49:36Z</time>
      </trkpt>
      <trkpt lat="42.905231" lon="0.227270">
        <ele>2177.5</ele>
        <time>2013-05-10T12:49:47Z</time>
      </trkpt>
      <trkpt lat="42.905296" lon="0.227358">
        <ele>2172.7</ele>
        <time>2013-05-10T12:49:57Z</time>
      </trkpt>
      <trkpt lat="42.905361" lon="0.227422">
        <ele>2169.4</ele>
        <time>2013-05-10T12:50:07Z</time>
      </trkpt>
      <trkpt lat="42.905422" lon="0.227448">
        <ele>2087.5</ele>
        <time>2013-05-10T12:54:06Z</time>
      </trkpt>
      <trkpt lat="42.905463" lon="0.227448">
        <ele>2161.7</ele>
        <time>2013-05-10T12:54:19Z</time>
      </trkpt>
      <trkpt lat="42.905540" lon="0.227370">
        <ele>2157.8</ele>
        <time>2013-05-10T12:54:30Z</time>
      </trkpt>
      <trkpt lat="42.905621" lon="0.227317">
        <ele>2153.5</ele>
        <time>2013-05-10T12:54:42Z</time>
      </trkpt>
      <trkpt lat="42.905689" lon="0.227249">
        <ele>2149.2</ele>
        <time>2013-05-10T12:54:54Z</time>
      </trkpt>
      <trkpt lat="42.905751" lon="0.227208">
        <ele>2144.8</ele>
        <time>2013-05-10T12:55:06Z</time>
      </trkpt>
      <trkpt lat="42.905824" lon="0.227158">
        <ele>2139.1</ele>
        <time>2013-05-10T12:55:18Z</time>
      </trkpt>
      <trkpt lat="42.905897" lon="0.227097">
        <ele>2134.7</ele>
        <time>2013-05-10T12:55:29Z</time>
      </trkpt>
      <trkpt lat="42.905971" lon="0.227066">
        <ele>2129.5</ele>
        <time>2013-05-10T12:55:41Z</time>
      </trkpt>
      <trkpt lat="42.906005" lon="0.226964">
        <ele>2124.6</ele>
        <time>2013-05-10T12:55:53Z</time>
      </trkpt>
      <trkpt lat="42.906053" lon="0.226864">
        <ele>2120.8</ele>
        <time>2013-05-10T12:56:08Z</time>
      </trkpt>
      <trkpt lat="42.906083" lon="0.226748">
        <ele>2116.0</ele>
        <time>2013-05-10T12:56:20Z</time>
      </trkpt>
      <trkpt lat="42.906126" lon="0.226644">
        <ele>2112.1</ele>
        <time>2013-05-10T12:56:31Z</time>
      </trkpt>
      <trkpt lat="42.906161" lon="0.226562">
        <ele>2108.3</ele>
        <time>2013-05-10T12:56:42Z</time>
      </trkpt>
      <trkpt lat="42.906246" lon="0.226632">
        <ele>2104.9</ele>
        <time>2013-05-10T12:56:52Z</time>
      </trkpt>
      <trkpt lat="42.906304" lon="0.226710">
        <ele>2099.7</ele>
        <time>2013-05-10T12:57:04Z</time>
      </trkpt>
      <trkpt lat="42.906371" lon="0.226725">
        <ele>2096.3</ele>
        <time>2013-05-10T12:57:17Z</time>
      </trkpt>
      <trkpt lat="42.906420" lon="0.226776">
        <ele>2093.4</ele>
        <time>2013-05-10T12:58:35Z</time>
      </trkpt>
      <trkpt lat="42.906482" lon="0.226818">
        <ele>2087.6</ele>
        <time>2013-05-10T12:58:56Z</time>
      </trkpt>
      <trkpt lat="42.906560" lon="0.226879">
        <ele>2083.8</ele>
        <time>2013-05-10T12:59:08Z</time>
      </trkpt>
      <trkpt lat="42.906628" lon="0.226838">
        <ele>2014.5</ele>
        <time>2013-05-10T12:59:21Z</time>
      </trkpt>
      <trkpt lat="42.906704" lon="0.226817">
        <ele>2074.2</ele>
        <time>2013-05-10T12:59:35Z</time>
      </trkpt>
      <trkpt lat="42.906773" lon="0.226824">
        <ele>2068.9</ele>
        <time>2013-05-10T12:59:49Z</time>
      </trkpt>
      <trkpt lat="42.906838" lon="0.226817">
        <ele>2003.0</ele>
        <time>2013-05-10T13:00:04Z</time>
      </trkpt>
      <trkpt lat="42.906925" lon="0.226821">
        <ele>1998.2</ele>
        <time>2013-05-10T13:00:17Z</time>
      </trkpt>
      <trkpt lat="42.907012" lon="0.226845">
        <ele>1993.4</ele>
        <time>2013-05-10T13:00:30Z</time>
      </trkpt>
      <trkpt lat="42.907114" lon="0.226833">
        <ele>1987.9</ele>
        <time>2013-05-10T13:00:41Z</time>
      </trkpt>
      <trkpt lat="42.907192" lon="0.226837">
        <ele>1983.6</ele>
        <time>2013-05-10T13:01:07Z</time>
      </trkpt>
      <trkpt lat="42.907275" lon="0.226821">
        <ele>1979.4</ele>
        <time>2013-05-10T13:01:18Z</time>
      </trkpt>
      <trkpt lat="42.907353" lon="0.226821">
        <ele>1975.2</ele>
        <time>2013-05-10T13:01:32Z</time>
      </trkpt>
      <trkpt lat="42.907431" lon="0.226817">
        <ele>1971.0</ele>
        <time>2013-05-10T13:01:47Z</time>
      </trkpt>
      <trkpt lat="42.907518" lon="0.226800">
        <ele>1966.4</ele>
        <time>2013-05-10T13:01:59Z</time>
      </trkpt>
      <trkpt lat="42.907599" lon="0.226804">
        <ele>1962.5</ele>
        <time>2013-05-10T13:02:10Z</time>
      </trkpt>
      <trkpt lat="42.907677" lon="0.226804">
        <ele>1958.8</ele>
        <time>2013-05-10T13:02:20Z</time>
      </trkpt>
      <trkpt lat="42.907764" lon="0.226796">
        <ele>1954.7</ele>
        <time>2013-05-10T13:02:37Z</time>
      </trkpt>
      <trkpt lat="42.907842" lon="0.226804">
        <ele>1951.0</ele>
        <time>2013-05-10T13:03:14Z</time>
      </trkpt>
      <trkpt lat="42.907922" lon="0.226800">
        <ele>1947.1</ele>
        <time>2013-05-10T13:03:31Z</time>
      </trkpt>
      <trkpt lat="42.907985" lon="0.226780">
        <ele>1944.0</ele>
        <time>2013-05-10T13:03:43Z</time>
      </trkpt>
      <trkpt lat="42.908066" lon="0.226764">
        <ele>1940.0</ele>
        <time>2013-05-10T13:03:55Z</time>
      </trkpt>
      <trkpt lat="42.908132" lon="0.226759">
        <ele>1936.8</ele>
        <time>2013-05-10T13:04:46Z</time>
      </trkpt>
      <trkpt lat="42.908201" lon="0.226747">
        <ele>1933.2</ele>
        <time>2013-05-10T13:04:59Z</time>
      </trkpt>
      <trkpt lat="42.908262" lon="0.226783">
        <ele>1930.7</ele>
        <time>2013-05-10T13:05:40Z</time>
      </trkpt>
      <trkpt lat="42.908348" lon="0.226768">
        <ele>1926.2</ele>
        <time>2013-05-10T13:05:54Z</time>
      </trkpt>
      <trkpt lat="42.908434" lon="0.226768">
        <ele>1922.1</ele>
        <time>2013-05-10T13:06:03Z</time>
      </trkpt>
      <trkpt lat="42.908528" lon="0.226732">
        <ele>1917.1</ele>
        <time>2013-05-10T13:06:17Z</time>
      </trkpt>
      <trkpt lat="42.908618" lon="0.226727">
        <ele>1912.5</ele>
        <time>2013-05-10T13:06:27Z</time>
      </trkpt>
      <trkpt lat="42.908700" lon="0.226717">
        <ele>1908.5</ele>
        <time>2013-05-10T13:06:37Z</time>
      </trkpt>
      <trkpt lat="42.908816" lon="0.226738">
        <ele>1903.0</ele>
        <time>2013-05-10T13:06:48Z</time>
      </trkpt>
      <trkpt lat="42.908930" lon="0.226687">
        <ele>1937.7</ele>
        <time>2013-05-10T13:06:59Z</time>
      </trkpt>
      <trkpt lat="42.909014" lon="0.226703">
        <ele>1932.4</ele>
        <time>2013-05-10T13:07:11Z</time>
      </trkpt>
      <trkpt lat="42.909104" lon="0.226675">
        <ele>1927.6</ele>
        <time>2013-05-10T13:07:23Z</time>
      </trkpt>
      <trkpt lat="42.909186" lon="0.226675">
        <ele>1922.8</ele>
        <time>2013-05-10T13:07:45Z</time>
      </trkpt>
      <trkpt lat="42.909278" lon="0.226644">
        <ele>1917.5</ele>
        <time>2013-05-10T13:08:23Z</time>
      </trkpt>
      <trkpt lat="42.909347" lon="0.226589">
        <ele>1913.2</ele>
        <time>2013-05-10T13:08:34Z</time>
      </trkpt>
      <trkpt lat="42.909424" lon="0.226570">
        <ele>1909.3</ele>
        <time>2013-05-10T13:08:49Z</time>
      </trkpt>
      <trkpt lat="42.909519" lon="0.226524">
        <ele>1904.5</ele>
        <time>2013-05-10T13:09:01Z</time>
      </trkpt>
      <trkpt lat="42.909610" lon="0.226474">
        <ele>1901.1</ele>
        <time>2013-05-10T13:09:12Z</time>
      </trkpt>
      <trkpt lat="42.909695" lon="0.226427">
        <ele>1896.8</ele>
        <time>2013-05-10T13:09:19Z</time>
      </trkpt>
      <trkpt lat="42.909790" lon="0.226409">
        <ele>1893.9</ele>
        <time>2013-05-10T13:09:28Z</time>
      </trkpt>
      <trkpt lat="42.909882" lon="0.226372">
        <ele>1890.6</ele>
        <time>2013-05-10T13:09:37Z</time>
      </trkpt>
      <trkpt lat="42.909960" lon="0.226305">
        <ele>1887.2</ele>
        <time>2013-05-10T13:09:46Z</time>
      </trkpt>
      <trkpt lat="42.910036" lon="0.226234">
        <ele>1882.9</ele>
        <time>2013-05-10T13:09:54Z</time>
      </trkpt>
      <trkpt lat="42.910108" lon="0.226139">
        <ele>1881.0</ele>
        <time>2013-05-10T13:10:03Z</time>
      </trkpt>
      <trkpt lat="42.910129" lon="0.226015">
        <ele>1879.0</ele>
        <time>2013-05-10T13:10:13Z</time>
      </trkpt>
      <trkpt lat="42.910153" lon="0.225883">
        <ele>1876.6</ele>
        <time>2013-05-10T13:10:21Z</time>
      </trkpt>
      <trkpt lat="42.910158" lon="0.225744">
        <ele>1874.2</ele>
        <time>2013-05-10T13:10:30Z</time>
      </trkpt>
      <trkpt lat="42.910187" lon="0.225616">
        <ele>1871.8</ele>
        <time>2013-05-10T13:10:38Z</time>
      </trkpt>
      <trkpt lat="42.910205" lon="0.225498">
        <ele>1868.9</ele>
        <time>2013-05-10T13:10:46Z</time>
      </trkpt>
      <trkpt lat="42.910247" lon="0.225378">
        <ele>1867.5</ele>
        <time>2013-05-10T13:10:54Z</time>
      </trkpt>
      <trkpt lat="42.910293" lon="0.225282">
        <ele>1864.1</ele>
        <time>2013-05-10T13:11:02Z</time>
      </trkpt>
      <trkpt lat="42.910332" lon="0.225175">
        <ele>1860.8</ele>
        <time>2013-05-10T13:11:10Z</time>
      </trkpt>
      <trkpt lat="42.910377" lon="0.225061">
        <ele>1856.9</ele>
        <time>2013-05-10T13:11:18Z</time>
      </trkpt>
      <trkpt lat="42.910428" lon="0.224956">
        <ele>1853.6</ele>
        <time>2013-05-10T13:11:26Z</time>
      </trkpt>
      <trkpt lat="42.910459" lon="0.224830">
        <ele>1849.2</ele>
        <time>2013-05-10T13:11:35Z</time>
      </trkpt>
      <trkpt lat="42.910509" lon="0.224715">
        <ele>1844.9</ele>
        <time>2013-05-10T13:11:45Z</time>
      </trkpt>
      <trkpt lat="42.910561" lon="0.224601">
        <ele>1840.1</ele>
        <time>2013-05-10T13:11:56Z</time>
      </trkpt>
      <trkpt lat="42.910657" lon="0.224609">
        <ele>1839.1</ele>
        <time>2013-05-10T13:12:05Z</time>
      </trkpt>
      <trkpt lat="42.910710" lon="0.224534">
        <ele>1838.2</ele>
        <time>2013-05-10T13:12:50Z</time>
      </trkpt>
      <trkpt lat="42.910767" lon="0.224419">
        <ele>1835.8</ele>
        <time>2013-05-10T13:13:00Z</time>
      </trkpt>
      <trkpt lat="42.910840" lon="0.224328">
        <ele>1833.4</ele>
        <time>2013-05-10T13:13:09Z</time>
      </trkpt>
      <trkpt lat="42.910913" lon="0.224227">
        <ele>1830.5</ele>
        <time>2013-05-10T13:13:18Z</time>
      </trkpt>
      <trkpt lat="42.910954" lon="0.224128">
        <ele>1827.6</ele>
        <time>2013-05-10T13:13:28Z</time>
      </trkpt>
      <trkpt lat="42.911015" lon="0.224035">
        <ele>1825.2</ele>
        <time>2013-05-10T13:13:37Z</time>
      </trkpt>
      <trkpt lat="42.911072" lon="0.223934">
        <ele>1821.8</ele>
        <time>2013-05-10T13:13:46Z</time>
      </trkpt>
      <trkpt lat="42.911129" lon="0.223829">
        <ele>1818.5</ele>
        <time>2013-05-10T13:13:56Z</time>
      </trkpt>
      <trkpt lat="42.911148" lon="0.223724">
        <ele>1814.6</ele>
        <time>2013-05-10T13:14:07Z</time>
      </trkpt>
      <trkpt lat="42.911189" lon="0.223605">
        <ele>1811.3</ele>
        <time>2013-05-10T13:14:16Z</time>
      </trkpt>
      <trkpt lat="42.911223" lon="0.223501">
        <ele>1808.4</ele>
        <time>2013-05-10T13:14:26Z</time>
      </trkpt>
      <trkpt lat="42.911235" lon="0.223361">
        <ele>1803.1</ele>
        <time>2013-05-10T13:14:35Z</time>
      </trkpt>
      <trkpt lat="42.911282" lon="0.223254">
        <ele>1799.7</ele>
        <time>2013-05-10T13:14:43Z</time>
      </trkpt>
      <trkpt lat="42.911322" lon="0.223131">
        <ele>1795.4</ele>
        <time>2013-05-10T13:14:51Z</time>
      </trkpt>
      <trkpt lat="42.911345" lon="0.223019">
        <ele>1792.0</ele>
        <time>2013-05-10T13:15:02Z</time>
      </trkpt>
      <trkpt lat="42.911364" lon="0.222935">
        <ele>1787.7</ele>
        <time>2013-05-10T13:15:15Z</time>
      </trkpt>
      <trkpt lat="42.911343" lon="0.222814">
        <ele>1783.4</ele>
        <time>2013-05-10T13:15:25Z</time>
      </trkpt>
      <trkpt lat="42.911413" lon="0.222872">
        <ele>1784.3</ele>
        <time>2013-05-10T13:15:47Z</time>
      </trkpt>
      <trkpt lat="42.911473" lon="0.222777">
        <ele>1783.4</ele>
        <time>2013-05-10T13:15:56Z</time>
      </trkpt>
      <trkpt lat="42.911485" lon="0.222658">
        <ele>1778.6</ele>
        <time>2013-05-10T13:16:12Z</time>
      </trkpt>
      <trkpt lat="42.911521" lon="0.222530">
        <ele>1774.2</ele>
        <time>2013-05-10T13:16:22Z</time>
      </trkpt>
      <trkpt lat="42.911518" lon="0.222416">
        <ele>1770.4</ele>
        <time>2013-05-10T13:16:32Z</time>
      </trkpt>
      <trkpt lat="42.911553" lon="0.222298">
        <ele>1766.1</ele>
        <time>2013-05-10T13:16:43Z</time>
      </trkpt>
      <trkpt lat="42.911620" lon="0.222184">
        <ele>1766.6</ele>
        <time>2013-05-10T13:16:56Z</time>
      </trkpt>
      <trkpt lat="42.911698" lon="0.222097">
        <ele>1758.4</ele>
        <time>2013-05-10T13:17:06Z</time>
      </trkpt>
      <trkpt lat="42.911741" lon="0.221971">
        <ele>1753.1</ele>
        <time>2013-05-10T13:17:17Z</time>
      </trkpt>
      <trkpt lat="42.911687" lon="0.221921">
        <ele>1750.2</ele>
        <time>2013-05-10T13:17:30Z</time>
      </trkpt>
      <trkpt lat="42.911678" lon="0.221806">
        <ele>1748.3</ele>
        <time>2013-05-10T13:17:38Z</time>
      </trkpt>
      <trkpt lat="42.911705" lon="0.221736">
        <ele>1744.4</ele>
        <time>2013-05-10T13:17:51Z</time>
      </trkpt>
      <trkpt lat="42.911721" lon="0.221610">
        <ele>1741.6</ele>
        <time>2013-05-10T13:18:07Z</time>
      </trkpt>
      <trkpt lat="42.911674" lon="0.221504">
        <ele>1738.2</ele>
        <time>2013-05-10T13:18:17Z</time>
      </trkpt>
      <trkpt lat="42.911650" lon="0.221408">
        <ele>1734.8</ele>
        <time>2013-05-10T13:18:26Z</time>
      </trkpt>
      <trkpt lat="42.911633" lon="0.221283">
        <ele>1731.0</ele>
        <time>2013-05-10T13:18:36Z</time>
      </trkpt>
      <trkpt lat="42.911626" lon="0.221184">
        <ele>1727.6</ele>
        <time>2013-05-10T13:18:45Z</time>
      </trkpt>
      <trkpt lat="42.911580" lon="0.221084">
        <ele>1724.7</ele>
        <time>2013-05-10T13:19:03Z</time>
      </trkpt>
      <trkpt lat="42.911505" lon="0.220988">
        <ele>1721.4</ele>
        <time>2013-05-10T13:19:13Z</time>
      </trkpt>
      <trkpt lat="42.911472" lon="0.220920">
        <ele>1717.5</ele>
        <time>2013-05-10T13:19:23Z</time>
      </trkpt>
      <trkpt lat="42.911484" lon="0.220840">
        <ele>1712.2</ele>
        <time>2013-05-10T13:19:35Z</time>
      </trkpt>
      <trkpt lat="42.911463" lon="0.220720">
        <ele>1706.5</ele>
        <time>2013-05-10T13:19:43Z</time>
      </trkpt>
      <trkpt lat="42.911433" lon="0.220680">
        <ele>1704.6</ele>
        <time>2013-05-10T13:20:15Z</time>
      </trkpt>
      <trkpt lat="42.911459" lon="0.220567">
        <ele>1700.7</ele>
        <time>2013-05-10T13:21:35Z</time>
      </trkpt>
      <trkpt lat="42.911481" lon="0.220470">
        <ele>1695.9</ele>
        <time>2013-05-10T13:21:46Z</time>
      </trkpt>
      <trkpt lat="42.911486" lon="0.220348">
        <ele>1690.1</ele>
        <time>2013-05-10T13:21:59Z</time>
      </trkpt>
      <trkpt lat="42.911455" lon="0.220277">
        <ele>1686.3</ele>
        <time>2013-05-10T13:22:11Z</time>
      </trkpt>
      <trkpt lat="42.911445" lon="0.220142">
        <ele>1681.5</ele>
        <time>2013-05-10T13:22:22Z</time>
      </trkpt>
      <trkpt lat="42.911452" lon="0.220013">
        <ele>1676.7</ele>
        <time>2013-05-10T13:22:33Z</time>
      </trkpt>
      <trkpt lat="42.911423" lon="0.219928">
        <ele>1672.3</ele>
        <time>2013-05-10T13:22:44Z</time>
      </trkpt>
      <trkpt lat="42.911434" lon="0.219828">
        <ele>1668.0</ele>
        <time>2013-05-10T13:22:55Z</time>
      </trkpt>
      <trkpt lat="42.911419" lon="0.219738">
        <ele>1664.2</ele>
        <time>2013-05-10T13:23:14Z</time>
      </trkpt>
      <trkpt lat="42.911401" lon="0.219639">
        <ele>1661.3</ele>
        <time>2013-05-10T13:25:22Z</time>
      </trkpt>
      <trkpt lat="42.911434" lon="0.219536">
        <ele>1656.5</ele>
        <time>2013-05-10T13:25:34Z</time>
      </trkpt>
      <trkpt lat="42.911493" lon="0.219434">
        <ele>1653.1</ele>
        <time>2013-05-10T13:25:42Z</time>
      </trkpt>
      <trkpt lat="42.911564" lon="0.219368">
        <ele>1649.8</ele>
        <time>2013-05-10T13:25:49Z</time>
      </trkpt>
      <trkpt lat="42.911604" lon="0.219253">
        <ele>1645.9</ele>
        <time>2013-05-10T13:25:59Z</time>
      </trkpt>
      <trkpt lat="42.911682" lon="0.219175">
        <ele>1642.1</ele>
        <time>2013-05-10T13:26:08Z</time>
      </trkpt>
      <trkpt lat="42.911750" lon="0.219090">
        <ele>1638.2</ele>
        <time>2013-05-10T13:26:17Z</time>
      </trkpt>
      <trkpt lat="42.911798" lon="0.219008">
        <ele>1633.9</ele>
        <time>2013-05-10T13:26:30Z</time>
      </trkpt>
      <trkpt lat="42.911831" lon="0.218915">
        <ele>1629.1</ele>
        <time>2013-05-10T13:26:43Z</time>
      </trkpt>
      <trkpt lat="42.911933" lon="0.218906">
        <ele>1624.8</ele>
        <time>2013-05-10T13:26:56Z</time>
      </trkpt>
      <trkpt lat="42.911929" lon="0.218794">
        <ele>1620.4</ele>
        <time>2013-05-10T13:27:06Z</time>
      </trkpt>
      <trkpt lat="42.911939" lon="0.218660">
        <ele>1616.1</ele>
        <time>2013-05-10T13:27:16Z</time>
      </trkpt>
      <trkpt lat="42.911971" lon="0.218539">
        <ele>1611.3</ele>
        <time>2013-05-10T13:27:24Z</time>
      </trkpt>
      <trkpt lat="42.911942" lon="0.218414">
        <ele>1608.4</ele>
        <time>2013-05-10T13:27:34Z</time>
      </trkpt>
      <trkpt lat="42.912010" lon="0.218330">
        <ele>1604.1</ele>
        <time>2013-05-10T13:27:44Z</time>
      </trkpt>
      <trkpt lat="42.912081" lon="0.218266">
        <ele>1601.7</ele>
        <time>2013-05-10T13:29:08Z</time>
      </trkpt>
      <trkpt lat="42.912187" lon="0.218233">
        <ele>1598.8</ele>
        <time>2013-05-10T13:29:17Z</time>
      </trkpt>
      <trkpt lat="42.912230" lon="0.218146">
        <ele>1595.4</ele>
        <time>2013-05-10T13:29:26Z</time>
      </trkpt>
      <trkpt lat="42.912278" lon="0.218034">
        <ele>1591.6</ele>
        <time>2013-05-10T13:29:36Z</time>
      </trkpt>
      <trkpt lat="42.912339" lon="0.217958">
        <ele>1588.7</ele>
        <time>2013-05-10T13:29:45Z</time>
      </trkpt>
      <trkpt lat="42.912416" lon="0.217877">
        <ele>1584.9</ele>
        <time>2013-05-10T13:29:54Z</time>
      </trkpt>
      <trkpt lat="42.912494" lon="0.217789">
        <ele>1582.5</ele>
        <time>2013-05-10T13:30:03Z</time>
      </trkpt>
      <trkpt lat="42.912560" lon="0.217711">
        <ele>1580.1</ele>
        <time>2013-05-10T13:30:11Z</time>
      </trkpt>
      <trkpt lat="42.912630" lon="0.217628">
        <ele>1578.1</ele>
        <time>2013-05-10T13:30:19Z</time>
      </trkpt>
      <trkpt lat="42.912692" lon="0.217537">
        <ele>1576.2</ele>
        <time>2013-05-10T13:30:27Z</time>
      </trkpt>
      <trkpt lat="42.912753" lon="0.217442">
        <ele>1574.3</ele>
        <time>2013-05-10T13:30:35Z</time>
      </trkpt>
      <trkpt lat="42.912848" lon="0.217379">
        <ele>1572.4</ele>
        <time>2013-05-10T13:30:43Z</time>
      </trkpt>
      <trkpt lat="42.912936" lon="0.217338">
        <ele>1570.9</ele>
        <time>2013-05-10T13:30:57Z</time>
      </trkpt>
      <trkpt lat="42.913014" lon="0.217326">
        <ele>1569.5</ele>
        <time>2013-05-10T13:31:16Z</time>
      </trkpt>
      <trkpt lat="42.913075" lon="0.217258">
        <ele>1569.0</ele>
        <time>2013-05-10T13:33:00Z</time>
      </trkpt>
      <trkpt lat="42.913168" lon="0.217203">
        <ele>1568.1</ele>
        <time>2013-05-10T13:33:09Z</time>
      </trkpt>
      <trkpt lat="42.913238" lon="0.217116">
        <ele>1567.1</ele>
        <time>2013-05-10T13:33:17Z</time>
      </trkpt>
      <trkpt lat="42.913316" lon="0.217076">
        <ele>1565.6</ele>
        <time>2013-05-10T13:33:23Z</time>
      </trkpt>
      <trkpt lat="42.913410" lon="0.217036">
        <ele>1565.2</ele>
        <time>2013-05-10T13:33:32Z</time>
      </trkpt>
      <trkpt lat="42.913499" lon="0.216967">
        <ele>1565.2</ele>
        <time>2013-05-10T13:33:40Z</time>
      </trkpt>
      <trkpt lat="42.913598" lon="0.216935">
        <ele>1564.2</ele>
        <time>2013-05-10T13:33:48Z</time>
      </trkpt>
      <trkpt lat="42.913694" lon="0.216894">
        <ele>1563.7</ele>
        <time>2013-05-10T13:33:56Z</time>
      </trkpt>
      <trkpt lat="42.913780" lon="0.216837">
        <ele>1562.8</ele>
        <time>2013-05-10T13:34:04Z</time>
      </trkpt>
      <trkpt lat="42.913877" lon="0.216798">
        <ele>1561.8</ele>
        <time>2013-05-10T13:34:12Z</time>
      </trkpt>
      <trkpt lat="42.913971" lon="0.216784">
        <ele>1561.8</ele>
        <time>2013-05-10T13:34:19Z</time>
      </trkpt>
      <trkpt lat="42.914061" lon="0.216760">
        <ele>1561.3</ele>
        <time>2013-05-10T13:34:27Z</time>
      </trkpt>
      <trkpt lat="42.914158" lon="0.216753">
        <ele>1562.3</ele>
        <time>2013-05-10T13:34:35Z</time>
      </trkpt>
      <trkpt lat="42.914260" lon="0.216762">
        <ele>1562.8</ele>
        <time>2013-05-10T13:34:43Z</time>
      </trkpt>
      <trkpt lat="42.914352" lon="0.216757">
        <ele>1562.3</ele>
        <time>2013-05-10T13:34:51Z</time>
      </trkpt>
      <trkpt lat="42.914453" lon="0.216750">
        <ele>1562.3</ele>
        <time>2013-05-10T13:34:59Z</time>
      </trkpt>
      <trkpt lat="42.914547" lon="0.216734">
        <ele>1562.3</ele>
        <time>2013-05-10T13:35:07Z</time>
      </trkpt>
      <trkpt lat="42.914633" lon="0.216704">
        <ele>1561.3</ele>
        <time>2013-05-10T13:35:15Z</time>
      </trkpt>
      <trkpt lat="42.914723" lon="0.216640">
        <ele>1562.3</ele>
        <time>2013-05-10T13:35:24Z</time>
      </trkpt>
      <trkpt lat="42.914811" lon="0.216579">
        <ele>1561.8</ele>
        <time>2013-05-10T13:35:33Z</time>
      </trkpt>
      <trkpt lat="42.914897" lon="0.216523">
        <ele>1559.9</ele>
        <time>2013-05-10T13:35:43Z</time>
      </trkpt>
      <trkpt lat="42.914962" lon="0.216415">
        <ele>1559.9</ele>
        <time>2013-05-10T13:35:52Z</time>
      </trkpt>
      <trkpt lat="42.915022" lon="0.216308">
        <ele>1559.4</ele>
        <time>2013-05-10T13:35:59Z</time>
      </trkpt>
      <trkpt lat="42.915084" lon="0.216227">
        <ele>1559.9</ele>
        <time>2013-05-10T13:36:07Z</time>
      </trkpt>
      <trkpt lat="42.915149" lon="0.216131">
        <ele>1559.9</ele>
        <time>2013-05-10T13:36:15Z</time>
      </trkpt>
      <trkpt lat="42.915210" lon="0.216032">
        <ele>1559.9</ele>
        <time>2013-05-10T13:36:23Z</time>
      </trkpt>
      <trkpt lat="42.915267" lon="0.215919">
        <ele>1559.9</ele>
        <time>2013-05-10T13:36:31Z</time>
      </trkpt>
      <trkpt lat="42.915312" lon="0.215801">
        <ele>1559.9</ele>
        <time>2013-05-10T13:36:39Z</time>
      </trkpt>
      <trkpt lat="42.915360" lon="0.215682">
        <ele>1558.4</ele>
        <time>2013-05-10T13:36:47Z</time>
      </trkpt>
      <trkpt lat="42.915395" lon="0.215546">
        <ele>1558.4</ele>
        <time>2013-05-10T13:36:55Z</time>
      </trkpt>
      <trkpt lat="42.915428" lon="0.215415">
        <ele>1558.4</ele>
        <time>2013-05-10T13:37:03Z</time>
      </trkpt>
      <trkpt lat="42.915462" lon="0.215299">
        <ele>1557.5</ele>
        <time>2013-05-10T13:37:10Z</time>
      </trkpt>
      <trkpt lat="42.915481" lon="0.215172">
        <ele>1556.0</ele>
        <time>2013-05-10T13:37:17Z</time>
      </trkpt>
      <trkpt lat="42.915527" lon="0.215067">
        <ele>1555.1</ele>
        <time>2013-05-10T13:37:24Z</time>
      </trkpt>
      <trkpt lat="42.915566" lon="0.214951">
        <ele>1553.6</ele>
        <time>2013-05-10T13:37:31Z</time>
      </trkpt>
      <trkpt lat="42.915600" lon="0.214832">
        <ele>1553.2</ele>
        <time>2013-05-10T13:37:38Z</time>
      </trkpt>
      <trkpt lat="42.915641" lon="0.214705">
        <ele>1552.7</ele>
        <time>2013-05-10T13:37:46Z</time>
      </trkpt>
      <trkpt lat="42.915676" lon="0.214579">
        <ele>1552.2</ele>
        <time>2013-05-10T13:37:54Z</time>
      </trkpt>
      <trkpt lat="42.915721" lon="0.214456">
        <ele>1550.7</ele>
        <time>2013-05-10T13:38:02Z</time>
      </trkpt>
      <trkpt lat="42.915751" lon="0.214324">
        <ele>1548.8</ele>
        <time>2013-05-10T13:38:11Z</time>
      </trkpt>
      <trkpt lat="42.915802" lon="0.214202">
        <ele>1545.9</ele>
        <time>2013-05-10T13:38:20Z</time>
      </trkpt>
      <trkpt lat="42.915842" lon="0.214087">
        <ele>1543.1</ele>
        <time>2013-05-10T13:38:29Z</time>
      </trkpt>
      <trkpt lat="42.915875" lon="0.213959">
        <ele>1539.2</ele>
        <time>2013-05-10T13:38:39Z</time>
      </trkpt>
      <trkpt lat="42.915916" lon="0.213837">
        <ele>1535.4</ele>
        <time>2013-05-10T13:38:53Z</time>
      </trkpt>
      <trkpt lat="42.915921" lon="0.213728">
        <ele>1532.0</ele>
        <time>2013-05-10T13:39:03Z</time>
      </trkpt>
      <trkpt lat="42.915947" lon="0.213610">
        <ele>1527.7</ele>
        <time>2013-05-10T13:39:19Z</time>
      </trkpt>
      <trkpt lat="42.915960" lon="0.213506">
        <ele>1523.8</ele>
        <time>2013-05-10T13:39:32Z</time>
      </trkpt>
      <trkpt lat="42.915955" lon="0.213432">
        <ele>1501.7</ele>
        <time>2013-05-10T13:39:48Z</time>
      </trkpt>
      <trkpt lat="42.915940" lon="0.213312">
        <ele>1515.2</ele>
        <time>2013-05-10T13:40:06Z</time>
      </trkpt>
      <trkpt lat="42.915944" lon="0.213199">
        <ele>1510.8</ele>
        <time>2013-05-10T13:40:22Z</time>
      </trkpt>
      <trkpt lat="42.915866" lon="0.213108">
        <ele>1506.5</ele>
        <time>2013-05-10T13:40:37Z</time>
      </trkpt>
      <trkpt lat="42.915820" lon="0.213027">
        <ele>1503.6</ele>
        <time>2013-05-10T13:40:52Z</time>
      </trkpt>
      <trkpt lat="42.915750" lon="0.212925">
        <ele>1500.8</ele>
        <time>2013-05-10T13:41:05Z</time>
      </trkpt>
      <trkpt lat="42.915699" lon="0.212816">
        <ele>1497.9</ele>
        <time>2013-05-10T13:41:17Z</time>
      </trkpt>
      <trkpt lat="42.915653" lon="0.212702">
        <ele>1495.0</ele>
        <time>2013-05-10T13:43:42Z</time>
      </trkpt>
      <trkpt lat="42.915646" lon="0.212568">
        <ele>1492.1</ele>
        <time>2013-05-10T13:43:57Z</time>
      </trkpt>
      <trkpt lat="42.915616" lon="0.212436">
        <ele>1490.2</ele>
        <time>2013-05-10T13:44:13Z</time>
      </trkpt>
      <trkpt lat="42.915619" lon="0.212294">
        <ele>1488.3</ele>
        <time>2013-05-10T13:44:28Z</time>
      </trkpt>
      <trkpt lat="42.915707" lon="0.212241">
        <ele>1484.9</ele>
        <time>2013-05-10T13:44:38Z</time>
      </trkpt>
      <trkpt lat="42.915771" lon="0.212158">
        <ele>1481.5</ele>
        <time>2013-05-10T13:44:50Z</time>
      </trkpt>
      <trkpt lat="42.915769" lon="0.212053">
        <ele>1479.1</ele>
        <time>2013-05-10T13:45:25Z</time>
      </trkpt>
      <trkpt lat="42.915680" lon="0.211980">
        <ele>1475.8</ele>
        <time>2013-05-10T13:45:46Z</time>
      </trkpt>
      <trkpt lat="42.915726" lon="0.211885">
        <ele>1471.9</ele>
        <time>2013-05-10T13:46:00Z</time>
      </trkpt>
      <trkpt lat="42.915696" lon="0.211794">
        <ele>1469.0</ele>
        <time>2013-05-10T13:46:13Z</time>
      </trkpt>
      <trkpt lat="42.915696" lon="0.211673">
        <ele>1465.7</ele>
        <time>2013-05-10T13:46:27Z</time>
      </trkpt>
      <trkpt lat="42.915754" lon="0.211563">
        <ele>1461.3</ele>
        <time>2013-05-10T13:46:41Z</time>
      </trkpt>
      <trkpt lat="42.915777" lon="0.211458">
        <ele>1458.0</ele>
        <time>2013-05-10T13:46:55Z</time>
      </trkpt>
      <trkpt lat="42.915832" lon="0.211435">
        <ele>1432.8</ele>
        <time>2013-05-10T13:47:08Z</time>
      </trkpt>
      <trkpt lat="42.915860" lon="0.211367">
        <ele>1431.2</ele>
        <time>2013-05-10T13:47:21Z</time>
      </trkpt>
      <trkpt lat="42.915898" lon="0.211207">
        <ele>1446.4</ele>
        <time>2013-05-10T13:47:38Z</time>
      </trkpt>
      <trkpt lat="42.915935" lon="0.211090">
        <ele>1442.6</ele>
        <time>2013-05-10T13:47:59Z</time>
      </trkpt>
      <trkpt lat="42.915989" lon="0.210995">
        <ele>1440.2</ele>
        <time>2013-05-10T13:48:06Z</time>
      </trkpt>
      <trkpt lat="42.916030" lon="0.210860">
        <ele>1438.3</ele>
        <time>2013-05-10T13:48:13Z</time>
      </trkpt>
      <trkpt lat="42.916033" lon="0.210725">
        <ele>1436.3</ele>
        <time>2013-05-10T13:48:20Z</time>
      </trkpt>
      <trkpt lat="42.916035" lon="0.210567">
        <ele>1433.9</ele>
        <time>2013-05-10T13:48:28Z</time>
      </trkpt>
      <trkpt lat="42.916064" lon="0.210420">
        <ele>1432.0</ele>
        <time>2013-05-10T13:48:35Z</time>
      </trkpt>
      <trkpt lat="42.916107" lon="0.210273">
        <ele>1429.6</ele>
        <time>2013-05-10T13:48:42Z</time>
      </trkpt>
      <trkpt lat="42.916159" lon="0.210168">
        <ele>1427.7</ele>
        <time>2013-05-10T13:48:48Z</time>
      </trkpt>
      <trkpt lat="42.916209" lon="0.210073">
        <ele>1428.2</ele>
        <time>2013-05-10T13:48:57Z</time>
      </trkpt>
      <trkpt lat="42.916275" lon="0.209989">
        <ele>1428.7</ele>
        <time>2013-05-10T13:49:06Z</time>
      </trkpt>
      <trkpt lat="42.916329" lon="0.209878">
        <ele>1425.3</ele>
        <time>2013-05-10T13:49:13Z</time>
      </trkpt>
      <trkpt lat="42.916392" lon="0.209798">
        <ele>1422.9</ele>
        <time>2013-05-10T13:49:24Z</time>
      </trkpt>
      <trkpt lat="42.916462" lon="0.209661">
        <ele>1418.1</ele>
        <time>2013-05-10T13:49:38Z</time>
      </trkpt>
      <trkpt lat="42.916515" lon="0.209431">
        <ele>1421.9</ele>
        <time>2013-05-10T13:50:20Z</time>
      </trkpt>
      <trkpt lat="42.916553" lon="0.209291">
        <ele>1421.9</ele>
        <time>2013-05-10T13:51:15Z</time>
      </trkpt>
      <trkpt lat="42.916570" lon="0.209269">
        <ele>1422.4</ele>
        <time>2013-05-10T13:51:47Z</time>
      </trkpt>
      <trkpt lat="42.916638" lon="0.209299">
        <ele>1423.8</ele>
        <time>2013-05-10T13:52:00Z</time>
      </trkpt>
      <trkpt lat="42.916708" lon="0.209413">
        <ele>1431.1</ele>
        <time>2013-05-10T13:52:11Z</time>
      </trkpt>
      <trkpt lat="42.916755" lon="0.209460">
        <ele>1418.5</ele>
        <time>2013-05-10T13:52:44Z</time>
      </trkpt>
      <trkpt lat="42.916862" lon="0.209467">
        <ele>1415.8</ele>
        <time>2013-05-10T13:53:28Z</time>
      </trkpt>
    </trkseg>
  </trk>
</gpx>

